<?xml version="1.0" encoding="utf-8"?>
<gpx xmlns:xsi="http://www.w3.org/2001/XMLSchema-instance" xmlns:xsd="http://www.w3.org/2001/XMLSchema" version="1.1" creator="Shapelink.com" xmlns="http://www.topografix.com/GPX/1/1" xmlns:gpxtpx="http://www.garmin.com/xmlschemas/TrackPointExtension/v1">
  <metadata>
    <name>Ejecutar 10.18 km, 2020-03-28</name>
    <desc></desc>
    <author><name>Per Rooth</name></author> 
    <time>2020-03-28T10:29:03Z</time>
  </metadata>
  <trk>
    <name>Ejecutar 10.18 km, 2020-03-28</name>
    <trkseg>
      <trkpt lat="56.891037659906" lon="14.824276871201">
        <ele>174.8</ele>
        <time>2020-03-28T10:29:03Z</time>
      </trkpt>
      <trkpt lat="56.891000360451" lon="14.824343088211">
        <ele>173.6</ele>
        <time>2020-03-28T10:29:04Z</time>
      </trkpt>
      <trkpt lat="56.890981417357" lon="14.824388601928">
        <ele>175</ele>
        <time>2020-03-28T10:29:05Z</time>
      </trkpt>
      <trkpt lat="56.890943614988" lon="14.824474851679">
        <ele>173.8</ele>
        <time>2020-03-28T10:29:07Z</time>
      </trkpt>
      <trkpt lat="56.890796093548" lon="14.82472119572">
        <ele>173.6</ele>
        <time>2020-03-28T10:29:14Z</time>
      </trkpt>
      <trkpt lat="56.8907464727" lon="14.824861341088">
        <ele>172.2</ele>
        <time>2020-03-28T10:29:17Z</time>
      </trkpt>
      <trkpt lat="56.890715794946" lon="14.824958990223">
        <ele>171</ele>
        <time>2020-03-28T10:29:19Z</time>
      </trkpt>
      <trkpt lat="56.890657456922" lon="14.825116569943">
        <ele>170</ele>
        <time>2020-03-28T10:29:22Z</time>
      </trkpt>
      <trkpt lat="56.89052519054" lon="14.825360902328">
        <ele>169.8</ele>
        <time>2020-03-28T10:29:28Z</time>
      </trkpt>
      <trkpt lat="56.89048579561" lon="14.825433741039">
        <ele>169</ele>
        <time>2020-03-28T10:29:30Z</time>
      </trkpt>
      <trkpt lat="56.890389655217" lon="14.825716294888">
        <ele>169.4</ele>
        <time>2020-03-28T10:29:36Z</time>
      </trkpt>
      <trkpt lat="56.890311368271" lon="14.826062970272">
        <ele>169</ele>
        <time>2020-03-28T10:29:42Z</time>
      </trkpt>
      <trkpt lat="56.89026618983" lon="14.826297914929">
        <ele>167.6</ele>
        <time>2020-03-28T10:29:47Z</time>
      </trkpt>
      <trkpt lat="56.890248252564" lon="14.826622797373">
        <ele>167.2</ele>
        <time>2020-03-28T10:29:53Z</time>
      </trkpt>
      <trkpt lat="56.890233668058" lon="14.826962012866">
        <ele>167.2</ele>
        <time>2020-03-28T10:30:01Z</time>
      </trkpt>
      <trkpt lat="56.890192932024" lon="14.827290667165">
        <ele>166.6</ele>
        <time>2020-03-28T10:30:09Z</time>
      </trkpt>
      <trkpt lat="56.890211539842" lon="14.827705906491">
        <ele>167.4</ele>
        <time>2020-03-28T10:30:17Z</time>
      </trkpt>
      <trkpt lat="56.890175413853" lon="14.827987789788">
        <ele>167.2</ele>
        <time>2020-03-28T10:30:21Z</time>
      </trkpt>
      <trkpt lat="56.890215814611" lon="14.828340081045">
        <ele>167.6</ele>
        <time>2020-03-28T10:30:28Z</time>
      </trkpt>
      <trkpt lat="56.890221598122" lon="14.828381822907">
        <ele>168</ele>
        <time>2020-03-28T10:30:29Z</time>
      </trkpt>
      <trkpt lat="56.890230566755" lon="14.82847377235">
        <ele>168.8</ele>
        <time>2020-03-28T10:30:31Z</time>
      </trkpt>
      <trkpt lat="56.890254622808" lon="14.828583491421">
        <ele>169.2</ele>
        <time>2020-03-28T10:30:34Z</time>
      </trkpt>
      <trkpt lat="56.890277589214" lon="14.828654737571">
        <ele>167.6</ele>
        <time>2020-03-28T10:30:37Z</time>
      </trkpt>
      <trkpt lat="56.890316062135" lon="14.828729085024">
        <ele>167.2</ele>
        <time>2020-03-28T10:30:40Z</time>
      </trkpt>
      <trkpt lat="56.890395019633" lon="14.828846934538">
        <ele>167.4</ele>
        <time>2020-03-28T10:30:45Z</time>
      </trkpt>
      <trkpt lat="56.890455034037" lon="14.828937207601">
        <ele>167.2</ele>
        <time>2020-03-28T10:30:49Z</time>
      </trkpt>
      <trkpt lat="56.890517143916" lon="14.828977692178">
        <ele>167.2</ele>
        <time>2020-03-28T10:30:52Z</time>
      </trkpt>
      <trkpt lat="56.890704227924" lon="14.82906637268">
        <ele>167.6</ele>
        <time>2020-03-28T10:30:59Z</time>
      </trkpt>
      <trkpt lat="56.890874548132" lon="14.829092272751">
        <ele>167</ele>
        <time>2020-03-28T10:31:04Z</time>
      </trkpt>
      <trkpt lat="56.890983764289" lon="14.829074586942">
        <ele>167</ele>
        <time>2020-03-28T10:31:08Z</time>
      </trkpt>
      <trkpt lat="56.891171602668" lon="14.82905799078">
        <ele>168.8</ele>
        <time>2020-03-28T10:31:14Z</time>
      </trkpt>
      <trkpt lat="56.891319207927" lon="14.829046759034">
        <ele>167.6</ele>
        <time>2020-03-28T10:31:20Z</time>
      </trkpt>
      <trkpt lat="56.891511572532" lon="14.829116831718">
        <ele>167</ele>
        <time>2020-03-28T10:31:28Z</time>
      </trkpt>
      <trkpt lat="56.891698237445" lon="14.829111802578">
        <ele>168</ele>
        <time>2020-03-28T10:31:35Z</time>
      </trkpt>
      <trkpt lat="56.891780715341" lon="14.829126303265">
        <ele>168.2</ele>
        <time>2020-03-28T10:31:38Z</time>
      </trkpt>
      <trkpt lat="56.891838801908" lon="14.829165865833">
        <ele>168.8</ele>
        <time>2020-03-28T10:31:41Z</time>
      </trkpt>
      <trkpt lat="56.891874844078" lon="14.829184222194">
        <ele>169.4</ele>
        <time>2020-03-28T10:31:43Z</time>
      </trkpt>
      <trkpt lat="56.891899319226" lon="14.829197214139">
        <ele>170</ele>
        <time>2020-03-28T10:31:44Z</time>
      </trkpt>
      <trkpt lat="56.891960842372" lon="14.829230490282">
        <ele>171.4</ele>
        <time>2020-03-28T10:31:47Z</time>
      </trkpt>
      <trkpt lat="56.891978947276" lon="14.829238620725">
        <ele>171.6</ele>
        <time>2020-03-28T10:31:48Z</time>
      </trkpt>
      <trkpt lat="56.892090258908" lon="14.829276590732">
        <ele>172</ele>
        <time>2020-03-28T10:31:54Z</time>
      </trkpt>
      <trkpt lat="56.89216804294" lon="14.829292935437">
        <ele>172</ele>
        <time>2020-03-28T10:31:57Z</time>
      </trkpt>
      <trkpt lat="56.892251778121" lon="14.829303664269">
        <ele>172.4</ele>
        <time>2020-03-28T10:32:00Z</time>
      </trkpt>
      <trkpt lat="56.892388989824" lon="14.829334258204">
        <ele>173.6</ele>
        <time>2020-03-28T10:32:05Z</time>
      </trkpt>
      <trkpt lat="56.89241111804" lon="14.829338197697">
        <ele>174</ele>
        <time>2020-03-28T10:32:06Z</time>
      </trkpt>
      <trkpt lat="56.892446741115" lon="14.829345573769">
        <ele>174</ele>
        <time>2020-03-28T10:32:08Z</time>
      </trkpt>
      <trkpt lat="56.892534080513" lon="14.829400559033">
        <ele>173.2</ele>
        <time>2020-03-28T10:32:12Z</time>
      </trkpt>
      <trkpt lat="56.892590742157" lon="14.829453197365">
        <ele>172.6</ele>
        <time>2020-03-28T10:32:15Z</time>
      </trkpt>
      <trkpt lat="56.892665592524" lon="14.829521426031">
        <ele>173.2</ele>
        <time>2020-03-28T10:32:20Z</time>
      </trkpt>
      <trkpt lat="56.892696773192" lon="14.8295592284">
        <ele>173.4</ele>
        <time>2020-03-28T10:32:22Z</time>
      </trkpt>
      <trkpt lat="56.892712195888" lon="14.82958185953">
        <ele>173.6</ele>
        <time>2020-03-28T10:32:23Z</time>
      </trkpt>
      <trkpt lat="56.892732060991" lon="14.829599545339">
        <ele>173.8</ele>
        <time>2020-03-28T10:32:24Z</time>
      </trkpt>
      <trkpt lat="56.892842031519" lon="14.829712198075">
        <ele>174</ele>
        <time>2020-03-28T10:32:30Z</time>
      </trkpt>
      <trkpt lat="56.892905398683" lon="14.829823844983">
        <ele>173.6</ele>
        <time>2020-03-28T10:32:34Z</time>
      </trkpt>
      <trkpt lat="56.892919396456" lon="14.829849493597">
        <ele>173.8</ele>
        <time>2020-03-28T10:32:35Z</time>
      </trkpt>
      <trkpt lat="56.893042861843" lon="14.830039259813">
        <ele>174</ele>
        <time>2020-03-28T10:32:41Z</time>
      </trkpt>
      <trkpt lat="56.893120729694" lon="14.83033120139">
        <ele>174.6</ele>
        <time>2020-03-28T10:32:48Z</time>
      </trkpt>
      <trkpt lat="56.89314788705" lon="14.830464305962">
        <ele>175.8</ele>
        <time>2020-03-28T10:32:51Z</time>
      </trkpt>
      <trkpt lat="56.893169428533" lon="14.83058433477">
        <ele>175.6</ele>
        <time>2020-03-28T10:32:55Z</time>
      </trkpt>
      <trkpt lat="56.893172781293" lon="14.830641164052">
        <ele>175</ele>
        <time>2020-03-28T10:32:58Z</time>
      </trkpt>
      <trkpt lat="56.893197675536" lon="14.830736214798">
        <ele>175</ele>
        <time>2020-03-28T10:33:02Z</time>
      </trkpt>
      <trkpt lat="56.893200441563" lon="14.830761528136">
        <ele>175.2</ele>
        <time>2020-03-28T10:33:03Z</time>
      </trkpt>
      <trkpt lat="56.893185857057" lon="14.830976775328">
        <ele>177.2</ele>
        <time>2020-03-28T10:33:11Z</time>
      </trkpt>
      <trkpt lat="56.89317890008" lon="14.83099672425">
        <ele>177.4</ele>
        <time>2020-03-28T10:33:12Z</time>
      </trkpt>
      <trkpt lat="56.893164902307" lon="14.831039304302">
        <ele>177.6</ele>
        <time>2020-03-28T10:33:14Z</time>
      </trkpt>
      <trkpt lat="56.893154927846" lon="14.831079788879">
        <ele>178.2</ele>
        <time>2020-03-28T10:33:16Z</time>
      </trkpt>
      <trkpt lat="56.893152245638" lon="14.831116669239">
        <ele>178.2</ele>
        <time>2020-03-28T10:33:18Z</time>
      </trkpt>
      <trkpt lat="56.893103965894" lon="14.831235776038">
        <ele>178.2</ele>
        <time>2020-03-28T10:33:22Z</time>
      </trkpt>
      <trkpt lat="56.893053758313" lon="14.831299394659">
        <ele>178.6</ele>
        <time>2020-03-28T10:33:25Z</time>
      </trkpt>
      <trkpt lat="56.89303305502" lon="14.831337364666">
        <ele>178.8</ele>
        <time>2020-03-28T10:33:27Z</time>
      </trkpt>
      <trkpt lat="56.893014866297" lon="14.831378855071">
        <ele>178.6</ele>
        <time>2020-03-28T10:33:30Z</time>
      </trkpt>
      <trkpt lat="56.892974968453" lon="14.831579936852">
        <ele>178</ele>
        <time>2020-03-28T10:33:34Z</time>
      </trkpt>
      <trkpt lat="56.89296264706" lon="14.831627546044">
        <ele>178</ele>
        <time>2020-03-28T10:33:36Z</time>
      </trkpt>
      <trkpt lat="56.89297102896" lon="14.831693930692">
        <ele>178.2</ele>
        <time>2020-03-28T10:33:39Z</time>
      </trkpt>
      <trkpt lat="56.892968346752" lon="14.831765176842">
        <ele>178.6</ele>
        <time>2020-03-28T10:33:42Z</time>
      </trkpt>
      <trkpt lat="56.892972956797" lon="14.831824436875">
        <ele>179.4</ele>
        <time>2020-03-28T10:33:44Z</time>
      </trkpt>
      <trkpt lat="56.892974968453" lon="14.831854024982">
        <ele>179.8</ele>
        <time>2020-03-28T10:33:45Z</time>
      </trkpt>
      <trkpt lat="56.892981422516" lon="14.83189191117">
        <ele>180.4</ele>
        <time>2020-03-28T10:33:48Z</time>
      </trkpt>
      <trkpt lat="56.893013441374" lon="14.831943543674">
        <ele>180.4</ele>
        <time>2020-03-28T10:33:54Z</time>
      </trkpt>
      <trkpt lat="56.893045041137" lon="14.831999534766">
        <ele>180.4</ele>
        <time>2020-03-28T10:33:58Z</time>
      </trkpt>
      <trkpt lat="56.893060882928" lon="14.832041779542">
        <ele>180.8</ele>
        <time>2020-03-28T10:34:00Z</time>
      </trkpt>
      <trkpt lat="56.893103295342" lon="14.832081174472">
        <ele>181</ele>
        <time>2020-03-28T10:34:03Z</time>
      </trkpt>
      <trkpt lat="56.893135984752" lon="14.832079917187">
        <ele>181.4</ele>
        <time>2020-03-28T10:34:06Z</time>
      </trkpt>
      <trkpt lat="56.893146629765" lon="14.832079246635">
        <ele>181.6</ele>
        <time>2020-03-28T10:34:08Z</time>
      </trkpt>
      <trkpt lat="56.893205386884" lon="14.832134064261">
        <ele>181.6</ele>
        <time>2020-03-28T10:34:14Z</time>
      </trkpt>
      <trkpt lat="56.89328032107" lon="14.832126688189">
        <ele>180.8</ele>
        <time>2020-03-28T10:34:18Z</time>
      </trkpt>
      <trkpt lat="56.893285769305" lon="14.832131214415">
        <ele>180.2</ele>
        <time>2020-03-28T10:34:19Z</time>
      </trkpt>
      <trkpt lat="56.893291888092" lon="14.832132639338">
        <ele>179.6</ele>
        <time>2020-03-28T10:34:20Z</time>
      </trkpt>
      <trkpt lat="56.8933113341" lon="14.832128951302">
        <ele>179</ele>
        <time>2020-03-28T10:34:22Z</time>
      </trkpt>
      <trkpt lat="56.893351315763" lon="14.83213163351">
        <ele>178.8</ele>
        <time>2020-03-28T10:34:25Z</time>
      </trkpt>
      <trkpt lat="56.893391967978" lon="14.832140183048">
        <ele>179</ele>
        <time>2020-03-28T10:34:27Z</time>
      </trkpt>
      <trkpt lat="56.893518869944" lon="14.832128783664">
        <ele>179</ele>
        <time>2020-03-28T10:34:33Z</time>
      </trkpt>
      <trkpt lat="56.893602269849" lon="14.832169687336">
        <ele>178.4</ele>
        <time>2020-03-28T10:34:38Z</time>
      </trkpt>
      <trkpt lat="56.893797903395" lon="14.832121994325">
        <ele>178.8</ele>
        <time>2020-03-28T10:34:47Z</time>
      </trkpt>
      <trkpt lat="56.893894630521" lon="14.832105146706">
        <ele>178</ele>
        <time>2020-03-28T10:34:52Z</time>
      </trkpt>
      <trkpt lat="56.89397434239" lon="14.832064662129">
        <ele>176.6</ele>
        <time>2020-03-28T10:34:56Z</time>
      </trkpt>
      <trkpt lat="56.894070147507" lon="14.832033816737">
        <ele>175.4</ele>
        <time>2020-03-28T10:35:01Z</time>
      </trkpt>
      <trkpt lat="56.894091856628" lon="14.832040857533">
        <ele>175.2</ele>
        <time>2020-03-28T10:35:02Z</time>
      </trkpt>
      <trkpt lat="56.89415539143" lon="14.832056028772">
        <ele>174.2</ele>
        <time>2020-03-28T10:35:05Z</time>
      </trkpt>
      <trkpt lat="56.894181794415" lon="14.832045635216">
        <ele>173.8</ele>
        <time>2020-03-28T10:35:06Z</time>
      </trkpt>
      <trkpt lat="56.894295033884" lon="14.831939855638">
        <ele>173.2</ele>
        <time>2020-03-28T10:35:11Z</time>
      </trkpt>
      <trkpt lat="56.894450685767" lon="14.831706754999">
        <ele>173.2</ele>
        <time>2020-03-28T10:35:19Z</time>
      </trkpt>
      <trkpt lat="56.894549592187" lon="14.831455968551">
        <ele>173.6</ele>
        <time>2020-03-28T10:35:25Z</time>
      </trkpt>
      <trkpt lat="56.894527044876" lon="14.831338789589">
        <ele>174</ele>
        <time>2020-03-28T10:35:29Z</time>
      </trkpt>
      <trkpt lat="56.894520339356" lon="14.831298724107">
        <ele>174.2</ele>
        <time>2020-03-28T10:35:31Z</time>
      </trkpt>
      <trkpt lat="56.894512879465" lon="14.83126410686">
        <ele>174.4</ele>
        <time>2020-03-28T10:35:32Z</time>
      </trkpt>
      <trkpt lat="56.89450826942" lon="14.831152795228">
        <ele>174.8</ele>
        <time>2020-03-28T10:35:35Z</time>
      </trkpt>
      <trkpt lat="56.894512795646" lon="14.831113316479">
        <ele>175.6</ele>
        <time>2020-03-28T10:35:37Z</time>
      </trkpt>
      <trkpt lat="56.894527044876" lon="14.83111909999">
        <ele>175.8</ele>
        <time>2020-03-28T10:35:39Z</time>
      </trkpt>
      <trkpt lat="56.89454682616" lon="14.831122285112">
        <ele>176</ele>
        <time>2020-03-28T10:35:43Z</time>
      </trkpt>
      <trkpt lat="56.894553866956" lon="14.831123123302">
        <ele>176</ele>
        <time>2020-03-28T10:35:44Z</time>
      </trkpt>
      <trkpt lat="56.894583371244" lon="14.831150448296">
        <ele>174.2</ele>
        <time>2020-03-28T10:35:49Z</time>
      </trkpt>
      <trkpt lat="56.894655958498" lon="14.83113083465">
        <ele>173.4</ele>
        <time>2020-03-28T10:35:52Z</time>
      </trkpt>
      <trkpt lat="56.89467590742" lon="14.831138797455">
        <ele>173</ele>
        <time>2020-03-28T10:35:53Z</time>
      </trkpt>
      <trkpt lat="56.89476810832" lon="14.831211636166">
        <ele>173</ele>
        <time>2020-03-28T10:36:00Z</time>
      </trkpt>
      <trkpt lat="56.894895177924" lon="14.831434091792">
        <ele>173</ele>
        <time>2020-03-28T10:36:08Z</time>
      </trkpt>
      <trkpt lat="56.894934824311" lon="14.831713879614">
        <ele>171.6</ele>
        <time>2020-03-28T10:36:12Z</time>
      </trkpt>
      <trkpt lat="56.894962233124" lon="14.831940190914">
        <ele>171.6</ele>
        <time>2020-03-28T10:36:16Z</time>
      </trkpt>
      <trkpt lat="56.894980840942" lon="14.832237077812">
        <ele>172.8</ele>
        <time>2020-03-28T10:36:21Z</time>
      </trkpt>
      <trkpt lat="56.895101037388" lon="14.832485265871">
        <ele>173.6</ele>
        <time>2020-03-28T10:36:28Z</time>
      </trkpt>
      <trkpt lat="56.895166835303" lon="14.832515189254">
        <ele>173.8</ele>
        <time>2020-03-28T10:36:31Z</time>
      </trkpt>
      <trkpt lat="56.895286780292" lon="14.832504460422">
        <ele>175</ele>
        <time>2020-03-28T10:36:35Z</time>
      </trkpt>
      <trkpt lat="56.895490209005" lon="14.832391137134">
        <ele>175.2</ele>
        <time>2020-03-28T10:36:41Z</time>
      </trkpt>
      <trkpt lat="56.89567167714" lon="14.832287285393">
        <ele>175</ele>
        <time>2020-03-28T10:36:46Z</time>
      </trkpt>
      <trkpt lat="56.895782653496" lon="14.832241184943">
        <ele>176</ele>
        <time>2020-03-28T10:36:49Z</time>
      </trkpt>
      <trkpt lat="56.895965378916" lon="14.832157198305">
        <ele>176.2</ele>
        <time>2020-03-28T10:36:55Z</time>
      </trkpt>
      <trkpt lat="56.896117342763" lon="14.832047311596">
        <ele>175</ele>
        <time>2020-03-28T10:37:00Z</time>
      </trkpt>
      <trkpt lat="56.896299229993" lon="14.831963911691">
        <ele>175.2</ele>
        <time>2020-03-28T10:37:05Z</time>
      </trkpt>
      <trkpt lat="56.896331751765" lon="14.83194052619">
        <ele>175.2</ele>
        <time>2020-03-28T10:37:06Z</time>
      </trkpt>
      <trkpt lat="56.896531073347" lon="14.831809684731">
        <ele>175.6</ele>
        <time>2020-03-28T10:37:12Z</time>
      </trkpt>
      <trkpt lat="56.896673817104" lon="14.831789735809">
        <ele>175.2</ele>
        <time>2020-03-28T10:37:18Z</time>
      </trkpt>
      <trkpt lat="56.896722096848" lon="14.831818737183">
        <ele>175.6</ele>
        <time>2020-03-28T10:37:22Z</time>
      </trkpt>
      <trkpt lat="56.896733244775" lon="14.831841535951">
        <ele>176</ele>
        <time>2020-03-28T10:37:23Z</time>
      </trkpt>
      <trkpt lat="56.896758725751" lon="14.831929210625">
        <ele>177.2</ele>
        <time>2020-03-28T10:37:26Z</time>
      </trkpt>
      <trkpt lat="56.896784625822" lon="14.832018226403">
        <ele>177.8</ele>
        <time>2020-03-28T10:37:29Z</time>
      </trkpt>
      <trkpt lat="56.896835420136" lon="14.8321492355">
        <ele>178.2</ele>
        <time>2020-03-28T10:37:34Z</time>
      </trkpt>
      <trkpt lat="56.896859224732" lon="14.832209501361">
        <ele>178.4</ele>
        <time>2020-03-28T10:37:36Z</time>
      </trkpt>
      <trkpt lat="56.896894177255" lon="14.832340845734">
        <ele>177.2</ele>
        <time>2020-03-28T10:37:40Z</time>
      </trkpt>
      <trkpt lat="56.896903397345" lon="14.832367751633">
        <ele>176.8</ele>
        <time>2020-03-28T10:37:41Z</time>
      </trkpt>
      <trkpt lat="56.897017894099" lon="14.832562714627">
        <ele>176.6</ele>
        <time>2020-03-28T10:37:50Z</time>
      </trkpt>
      <trkpt lat="56.897036585736" lon="14.832581825359">
        <ele>176.6</ele>
        <time>2020-03-28T10:37:52Z</time>
      </trkpt>
      <trkpt lat="56.897047566025" lon="14.832657513916">
        <ele>176.8</ele>
        <time>2020-03-28T10:37:55Z</time>
      </trkpt>
      <trkpt lat="56.897046392559" lon="14.832856332584">
        <ele>177.4</ele>
        <time>2020-03-28T10:37:59Z</time>
      </trkpt>
      <trkpt lat="56.8970580434" lon="14.832940319222">
        <ele>177.8</ele>
        <time>2020-03-28T10:38:01Z</time>
      </trkpt>
      <trkpt lat="56.89709576195" lon="14.833065125713">
        <ele>177.6</ele>
        <time>2020-03-28T10:38:05Z</time>
      </trkpt>
      <trkpt lat="56.897107328972" lon="14.833156823699">
        <ele>177.4</ele>
        <time>2020-03-28T10:38:08Z</time>
      </trkpt>
      <trkpt lat="56.897126691161" lon="14.833221951062">
        <ele>177.6</ele>
        <time>2020-03-28T10:38:10Z</time>
      </trkpt>
      <trkpt lat="56.897160051123" lon="14.833377686764">
        <ele>178.6</ele>
        <time>2020-03-28T10:38:14Z</time>
      </trkpt>
      <trkpt lat="56.89717036086" lon="14.83346938475">
        <ele>179.6</ele>
        <time>2020-03-28T10:38:16Z</time>
      </trkpt>
      <trkpt lat="56.897177569294" lon="14.833605087711">
        <ele>180.2</ele>
        <time>2020-03-28T10:38:19Z</time>
      </trkpt>
      <trkpt lat="56.897198440225" lon="14.833637190388">
        <ele>180.4</ele>
        <time>2020-03-28T10:38:21Z</time>
      </trkpt>
      <trkpt lat="56.897243451028" lon="14.833688906711">
        <ele>180.6</ele>
        <time>2020-03-28T10:38:25Z</time>
      </trkpt>
      <trkpt lat="56.897277062447" lon="14.833701060466">
        <ele>180.8</ele>
        <time>2020-03-28T10:38:27Z</time>
      </trkpt>
      <trkpt lat="56.897316708834" lon="14.833697707706">
        <ele>181</ele>
        <time>2020-03-28T10:38:29Z</time>
      </trkpt>
      <trkpt lat="56.897393738495" lon="14.833675244214">
        <ele>181.2</ele>
        <time>2020-03-28T10:38:33Z</time>
      </trkpt>
      <trkpt lat="56.897434893624" lon="14.833643225356">
        <ele>180.6</ele>
        <time>2020-03-28T10:38:36Z</time>
      </trkpt>
      <trkpt lat="56.897500691539" lon="14.833619085484">
        <ele>179.6</ele>
        <time>2020-03-28T10:38:40Z</time>
      </trkpt>
      <trkpt lat="56.897521897746" lon="14.833594191241">
        <ele>179.6</ele>
        <time>2020-03-28T10:38:41Z</time>
      </trkpt>
      <trkpt lat="56.897615858845" lon="14.833498134667">
        <ele>178.4</ele>
        <time>2020-03-28T10:38:45Z</time>
      </trkpt>
      <trkpt lat="56.897746616485" lon="14.833415237676">
        <ele>178</ele>
        <time>2020-03-28T10:38:51Z</time>
      </trkpt>
      <trkpt lat="56.897902519825" lon="14.833343740069">
        <ele>178.8</ele>
        <time>2020-03-28T10:38:58Z</time>
      </trkpt>
      <trkpt lat="56.897976029088" lon="14.833287916615">
        <ele>179.6</ele>
        <time>2020-03-28T10:39:01Z</time>
      </trkpt>
      <trkpt lat="56.89815858687" lon="14.833147352152">
        <ele>179.6</ele>
        <time>2020-03-28T10:39:08Z</time>
      </trkpt>
      <trkpt lat="56.898317759151" lon="14.832969069139">
        <ele>179.2</ele>
        <time>2020-03-28T10:39:14Z</time>
      </trkpt>
      <trkpt lat="56.898408786585" lon="14.832752648481">
        <ele>178.4</ele>
        <time>2020-03-28T10:39:19Z</time>
      </trkpt>
      <trkpt lat="56.898535940008" lon="14.832498006359">
        <ele>178.4</ele>
        <time>2020-03-28T10:39:26Z</time>
      </trkpt>
      <trkpt lat="56.898549015772" lon="14.832463892026">
        <ele>178</ele>
        <time>2020-03-28T10:39:27Z</time>
      </trkpt>
      <trkpt lat="56.898659656852" lon="14.832324668667">
        <ele>177.2</ele>
        <time>2020-03-28T10:39:33Z</time>
      </trkpt>
      <trkpt lat="56.898813464717" lon="14.832142697618">
        <ele>177.2</ele>
        <time>2020-03-28T10:39:41Z</time>
      </trkpt>
      <trkpt lat="56.89898671859" lon="14.832010263598">
        <ele>178.2</ele>
        <time>2020-03-28T10:39:49Z</time>
      </trkpt>
      <trkpt lat="56.89906886121" lon="14.831907082409">
        <ele>178.4</ele>
        <time>2020-03-28T10:39:54Z</time>
      </trkpt>
      <trkpt lat="56.899141029369" lon="14.831846565091">
        <ele>178.4</ele>
        <time>2020-03-28T10:39:58Z</time>
      </trkpt>
      <trkpt lat="56.899302883858" lon="14.831689991199">
        <ele>178</ele>
        <time>2020-03-28T10:40:07Z</time>
      </trkpt>
      <trkpt lat="56.899317971278" lon="14.83166811444">
        <ele>177.8</ele>
        <time>2020-03-28T10:40:08Z</time>
      </trkpt>
      <trkpt lat="56.899338590752" lon="14.831647075871">
        <ele>177</ele>
        <time>2020-03-28T10:40:10Z</time>
      </trkpt>
      <trkpt lat="56.899389552704" lon="14.831682866584">
        <ele>176.4</ele>
        <time>2020-03-28T10:40:16Z</time>
      </trkpt>
      <trkpt lat="56.899415201318" lon="14.831784790488">
        <ele>176</ele>
        <time>2020-03-28T10:40:18Z</time>
      </trkpt>
      <trkpt lat="56.899456607904" lon="14.831953518135">
        <ele>174.8</ele>
        <time>2020-03-28T10:40:21Z</time>
      </trkpt>
      <trkpt lat="56.899586694992" lon="14.832195252131">
        <ele>174.4</ele>
        <time>2020-03-28T10:40:27Z</time>
      </trkpt>
      <trkpt lat="56.899608487932" lon="14.832200951823">
        <ele>174.4</ele>
        <time>2020-03-28T10:40:28Z</time>
      </trkpt>
      <trkpt lat="56.899624245904" lon="14.832193324294">
        <ele>174.2</ele>
        <time>2020-03-28T10:40:30Z</time>
      </trkpt>
      <trkpt lat="56.899617288927" lon="14.832184942394">
        <ele>173.8</ele>
        <time>2020-03-28T10:40:31Z</time>
      </trkpt>
      <trkpt lat="56.899589712476" lon="14.832142362342">
        <ele>172.6</ele>
        <time>2020-03-28T10:40:33Z</time>
      </trkpt>
      <trkpt lat="56.899570853201" lon="14.832108834742">
        <ele>172.4</ele>
        <time>2020-03-28T10:40:34Z</time>
      </trkpt>
      <trkpt lat="56.899476473007" lon="14.831825610341">
        <ele>172.8</ele>
        <time>2020-03-28T10:40:41Z</time>
      </trkpt>
      <trkpt lat="56.899471443867" lon="14.831649506622">
        <ele>174</ele>
        <time>2020-03-28T10:40:45Z</time>
      </trkpt>
      <trkpt lat="56.899461553225" lon="14.83153484223">
        <ele>175.2</ele>
        <time>2020-03-28T10:40:48Z</time>
      </trkpt>
      <trkpt lat="56.899444789425" lon="14.831437863647">
        <ele>176.6</ele>
        <time>2020-03-28T10:40:50Z</time>
      </trkpt>
      <trkpt lat="56.899377063673" lon="14.831230160165">
        <ele>178</ele>
        <time>2020-03-28T10:40:54Z</time>
      </trkpt>
      <trkpt lat="56.899281929108" lon="14.830917180019">
        <ele>177.8</ele>
        <time>2020-03-28T10:40:59Z</time>
      </trkpt>
      <trkpt lat="56.899253514467" lon="14.830775609728">
        <ele>176.8</ele>
        <time>2020-03-28T10:41:01Z</time>
      </trkpt>
      <trkpt lat="56.89920129523" lon="14.830572516291">
        <ele>175.4</ele>
        <time>2020-03-28T10:41:04Z</time>
      </trkpt>
      <trkpt lat="56.899081350241" lon="14.830270516434">
        <ele>175</ele>
        <time>2020-03-28T10:41:09Z</time>
      </trkpt>
      <trkpt lat="56.899046481537" lon="14.830194911696">
        <ele>173.8</ele>
        <time>2020-03-28T10:41:11Z</time>
      </trkpt>
      <trkpt lat="56.898999710535" lon="14.830124000822">
        <ele>172.6</ele>
        <time>2020-03-28T10:41:13Z</time>
      </trkpt>
      <trkpt lat="56.898922680874" lon="14.830097849294">
        <ele>173</ele>
        <time>2020-03-28T10:41:17Z</time>
      </trkpt>
      <trkpt lat="56.89888194484" lon="14.830144620296">
        <ele>173.6</ele>
        <time>2020-03-28T10:41:20Z</time>
      </trkpt>
      <trkpt lat="56.898787899922" lon="14.830246963295">
        <ele>173.8</ele>
        <time>2020-03-28T10:41:28Z</time>
      </trkpt>
      <trkpt lat="56.898734507219" lon="14.830180830104">
        <ele>174.6</ele>
        <time>2020-03-28T10:41:33Z</time>
      </trkpt>
      <trkpt lat="56.89864557526" lon="14.8301459614">
        <ele>174.8</ele>
        <time>2020-03-28T10:41:37Z</time>
      </trkpt>
      <trkpt lat="56.898613975497" lon="14.830144452658">
        <ele>174.8</ele>
        <time>2020-03-28T10:41:39Z</time>
      </trkpt>
      <trkpt lat="56.898496545078" lon="14.830030794094">
        <ele>173.4</ele>
        <time>2020-03-28T10:41:45Z</time>
      </trkpt>
      <trkpt lat="56.898480535649" lon="14.830049066636">
        <ele>173.2</ele>
        <time>2020-03-28T10:41:46Z</time>
      </trkpt>
      <trkpt lat="56.898423790186" lon="14.830154091843">
        <ele>172.2</ele>
        <time>2020-03-28T10:41:49Z</time>
      </trkpt>
      <trkpt lat="56.898254643444" lon="14.830343690421">
        <ele>172.2</ele>
        <time>2020-03-28T10:41:56Z</time>
      </trkpt>
      <trkpt lat="56.898200664008" lon="14.830382498618">
        <ele>173.2</ele>
        <time>2020-03-28T10:41:58Z</time>
      </trkpt>
      <trkpt lat="56.898124053442" lon="14.830448128895">
        <ele>174.4</ele>
        <time>2020-03-28T10:42:01Z</time>
      </trkpt>
      <trkpt lat="56.897950883388" lon="14.830630183763">
        <ele>175.2</ele>
        <time>2020-03-28T10:42:08Z</time>
      </trkpt>
      <trkpt lat="56.897901513997" lon="14.830670752159">
        <ele>175.6</ele>
        <time>2020-03-28T10:42:10Z</time>
      </trkpt>
      <trkpt lat="56.897736306748" lon="14.830810813708">
        <ele>176.2</ele>
        <time>2020-03-28T10:42:16Z</time>
      </trkpt>
      <trkpt lat="56.897550312387" lon="14.830958670424">
        <ele>176.2</ele>
        <time>2020-03-28T10:42:22Z</time>
      </trkpt>
      <trkpt lat="56.897371945555" lon="14.831128068623">
        <ele>175.8</ele>
        <time>2020-03-28T10:42:28Z</time>
      </trkpt>
      <trkpt lat="56.897199613691" lon="14.831220772437">
        <ele>176</ele>
        <time>2020-03-28T10:42:33Z</time>
      </trkpt>
      <trkpt lat="56.897026778913" lon="14.83130014903">
        <ele>176.4</ele>
        <time>2020-03-28T10:42:38Z</time>
      </trkpt>
      <trkpt lat="56.89687028884" lon="14.831115831049">
        <ele>174.6</ele>
        <time>2020-03-28T10:42:44Z</time>
      </trkpt>
      <trkpt lat="56.896847238615" lon="14.831093283738">
        <ele>174.4</ele>
        <time>2020-03-28T10:42:45Z</time>
      </trkpt>
      <trkpt lat="56.896712876758" lon="14.831047099469">
        <ele>175.4</ele>
        <time>2020-03-28T10:42:51Z</time>
      </trkpt>
      <trkpt lat="56.896627800473" lon="14.831004435598">
        <ele>176</ele>
        <time>2020-03-28T10:42:54Z</time>
      </trkpt>
      <trkpt lat="56.896590584837" lon="14.83096990217">
        <ele>176.6</ele>
        <time>2020-03-28T10:42:56Z</time>
      </trkpt>
      <trkpt lat="56.896561751101" lon="14.830945175565">
        <ele>177.2</ele>
        <time>2020-03-28T10:42:58Z</time>
      </trkpt>
      <trkpt lat="56.896544652025" lon="14.83099420968">
        <ele>177.6</ele>
        <time>2020-03-28T10:43:02Z</time>
      </trkpt>
      <trkpt lat="56.896540125799" lon="14.831022624321">
        <ele>177.6</ele>
        <time>2020-03-28T10:43:03Z</time>
      </trkpt>
      <trkpt lat="56.896541299265" lon="14.83128338523">
        <ele>178</ele>
        <time>2020-03-28T10:43:10Z</time>
      </trkpt>
      <trkpt lat="56.896439962094" lon="14.831581613232">
        <ele>177.4</ele>
        <time>2020-03-28T10:43:17Z</time>
      </trkpt>
      <trkpt lat="56.896408949064" lon="14.831864502357">
        <ele>176.4</ele>
        <time>2020-03-28T10:43:22Z</time>
      </trkpt>
      <trkpt lat="56.896397633499" lon="14.831915296671">
        <ele>176.2</ele>
        <time>2020-03-28T10:43:23Z</time>
      </trkpt>
      <trkpt lat="56.89637156579" lon="14.832042450094">
        <ele>175.8</ele>
        <time>2020-03-28T10:43:26Z</time>
      </trkpt>
      <trkpt lat="56.896379612414" lon="14.83237051766">
        <ele>176.2</ele>
        <time>2020-03-28T10:43:34Z</time>
      </trkpt>
      <trkpt lat="56.896410876901" lon="14.832515943625">
        <ele>176.8</ele>
        <time>2020-03-28T10:43:38Z</time>
      </trkpt>
      <trkpt lat="56.896388664866" lon="14.832563971912">
        <ele>177.6</ele>
        <time>2020-03-28T10:43:40Z</time>
      </trkpt>
      <trkpt lat="56.896373745084" lon="14.83263873846">
        <ele>178.4</ele>
        <time>2020-03-28T10:43:43Z</time>
      </trkpt>
      <trkpt lat="56.896379444776" lon="14.832659860848">
        <ele>178.8</ele>
        <time>2020-03-28T10:43:44Z</time>
      </trkpt>
      <trkpt lat="56.896393023454" lon="14.832740913821">
        <ele>179.8</ele>
        <time>2020-03-28T10:43:47Z</time>
      </trkpt>
      <trkpt lat="56.896411547453" lon="14.832784751158">
        <ele>180</ele>
        <time>2020-03-28T10:43:49Z</time>
      </trkpt>
      <trkpt lat="56.896429568538" lon="14.832889441089">
        <ele>180.8</ele>
        <time>2020-03-28T10:43:52Z</time>
      </trkpt>
      <trkpt lat="56.896438118076" lon="14.832924393612">
        <ele>181.2</ele>
        <time>2020-03-28T10:43:53Z</time>
      </trkpt>
      <trkpt lat="56.89638832959" lon="14.833243157269">
        <ele>181.6</ele>
        <time>2020-03-28T10:44:00Z</time>
      </trkpt>
      <trkpt lat="56.896387826676" lon="14.833288168072">
        <ele>182</ele>
        <time>2020-03-28T10:44:01Z</time>
      </trkpt>
      <trkpt lat="56.89638413864" lon="14.83340400593">
        <ele>183</ele>
        <time>2020-03-28T10:44:04Z</time>
      </trkpt>
      <trkpt lat="56.896358741483" lon="14.833556137415">
        <ele>182.2</ele>
        <time>2020-03-28T10:44:08Z</time>
      </trkpt>
      <trkpt lat="56.896359160578" lon="14.833567955894">
        <ele>181.8</ele>
        <time>2020-03-28T10:44:09Z</time>
      </trkpt>
      <trkpt lat="56.896366788107" lon="14.833631323058">
        <ele>181.6</ele>
        <time>2020-03-28T10:44:12Z</time>
      </trkpt>
      <trkpt lat="56.896364608813" lon="14.833671137083">
        <ele>182</ele>
        <time>2020-03-28T10:44:13Z</time>
      </trkpt>
      <trkpt lat="56.896387239943" lon="14.833996690079">
        <ele>181.8</ele>
        <time>2020-03-28T10:44:22Z</time>
      </trkpt>
      <trkpt lat="56.896382546079" lon="14.834126358072">
        <ele>181.4</ele>
        <time>2020-03-28T10:44:25Z</time>
      </trkpt>
      <trkpt lat="56.896464521061" lon="14.834291900597">
        <ele>180.8</ele>
        <time>2020-03-28T10:44:30Z</time>
      </trkpt>
      <trkpt lat="56.896552111916" lon="14.834598761956">
        <ele>180.4</ele>
        <time>2020-03-28T10:44:37Z</time>
      </trkpt>
      <trkpt lat="56.896564768585" lon="14.834643521302">
        <ele>180.2</ele>
        <time>2020-03-28T10:44:38Z</time>
      </trkpt>
      <trkpt lat="56.896541131627" lon="14.83489766051">
        <ele>179.6</ele>
        <time>2020-03-28T10:44:45Z</time>
      </trkpt>
      <trkpt lat="56.896542137455" lon="14.83497812675">
        <ele>178.2</ele>
        <time>2020-03-28T10:44:48Z</time>
      </trkpt>
      <trkpt lat="56.896545154939" lon="14.835026825589">
        <ele>178</ele>
        <time>2020-03-28T10:44:50Z</time>
      </trkpt>
      <trkpt lat="56.896560242359" lon="14.835163115283">
        <ele>177.8</ele>
        <time>2020-03-28T10:44:53Z</time>
      </trkpt>
      <trkpt lat="56.896553788296" lon="14.835531080693">
        <ele>178.8</ele>
        <time>2020-03-28T10:45:00Z</time>
      </trkpt>
      <trkpt lat="56.89657692234" lon="14.835872726937">
        <ele>179.4</ele>
        <time>2020-03-28T10:45:08Z</time>
      </trkpt>
      <trkpt lat="56.896573821037" lon="14.835889909832">
        <ele>179.6</ele>
        <time>2020-03-28T10:45:09Z</time>
      </trkpt>
      <trkpt lat="56.896571809381" lon="14.835926790192">
        <ele>179.8</ele>
        <time>2020-03-28T10:45:11Z</time>
      </trkpt>
      <trkpt lat="56.89657943691" lon="14.836005328595">
        <ele>180</ele>
        <time>2020-03-28T10:45:15Z</time>
      </trkpt>
      <trkpt lat="56.896555213219" lon="14.836148910542">
        <ele>179.6</ele>
        <time>2020-03-28T10:45:21Z</time>
      </trkpt>
      <trkpt lat="56.896560242359" lon="14.836189730395">
        <ele>179.6</ele>
        <time>2020-03-28T10:45:23Z</time>
      </trkpt>
      <trkpt lat="56.896557895427" lon="14.836275728689">
        <ele>179.2</ele>
        <time>2020-03-28T10:45:27Z</time>
      </trkpt>
      <trkpt lat="56.896568791897" lon="14.836336078369">
        <ele>179.2</ele>
        <time>2020-03-28T10:45:30Z</time>
      </trkpt>
      <trkpt lat="56.896588070267" lon="14.836390393081">
        <ele>178.8</ele>
        <time>2020-03-28T10:45:33Z</time>
      </trkpt>
      <trkpt lat="56.896575832693" lon="14.836539255625">
        <ele>178.8</ele>
        <time>2020-03-28T10:45:37Z</time>
      </trkpt>
      <trkpt lat="56.896545657853" lon="14.836650567257">
        <ele>178.6</ele>
        <time>2020-03-28T10:45:39Z</time>
      </trkpt>
      <trkpt lat="56.896473154418" lon="14.836759867233">
        <ele>178.4</ele>
        <time>2020-03-28T10:45:43Z</time>
      </trkpt>
      <trkpt lat="56.896303085667" lon="14.836941335368">
        <ele>179.2</ele>
        <time>2020-03-28T10:45:50Z</time>
      </trkpt>
      <trkpt lat="56.896183140678" lon="14.837217183697">
        <ele>178.6</ele>
        <time>2020-03-28T10:45:56Z</time>
      </trkpt>
      <trkpt lat="56.896154726037" lon="14.837331596632">
        <ele>179.6</ele>
        <time>2020-03-28T10:45:58Z</time>
      </trkpt>
      <trkpt lat="56.896100411325" lon="14.83740217223">
        <ele>180.6</ele>
        <time>2020-03-28T10:46:00Z</time>
      </trkpt>
      <trkpt lat="56.895989518788" lon="14.837515914613">
        <ele>180.6</ele>
        <time>2020-03-28T10:46:04Z</time>
      </trkpt>
      <trkpt lat="56.895948782754" lon="14.837583724184">
        <ele>179.6</ele>
        <time>2020-03-28T10:46:06Z</time>
      </trkpt>
      <trkpt lat="56.895897234069" lon="14.837695957825">
        <ele>179.4</ele>
        <time>2020-03-28T10:46:10Z</time>
      </trkpt>
      <trkpt lat="56.895815175268" lon="14.83773493366">
        <ele>179.6</ele>
        <time>2020-03-28T10:46:19Z</time>
      </trkpt>
      <trkpt lat="56.89575214338" lon="14.83773912461">
        <ele>179.6</ele>
        <time>2020-03-28T10:46:22Z</time>
      </trkpt>
      <trkpt lat="56.895603197017" lon="14.837763348301">
        <ele>179.8</ele>
        <time>2020-03-28T10:46:28Z</time>
      </trkpt>
      <trkpt lat="56.895502949493" lon="14.837852783174">
        <ele>180.6</ele>
        <time>2020-03-28T10:46:32Z</time>
      </trkpt>
      <trkpt lat="56.895458357785" lon="14.837860159246">
        <ele>179.8</ele>
        <time>2020-03-28T10:46:34Z</time>
      </trkpt>
      <trkpt lat="56.895287115568" lon="14.837765611414">
        <ele>180.2</ele>
        <time>2020-03-28T10:46:43Z</time>
      </trkpt>
      <trkpt lat="56.895270100311" lon="14.837701070784">
        <ele>181</ele>
        <time>2020-03-28T10:46:49Z</time>
      </trkpt>
      <trkpt lat="56.895260377307" lon="14.837707776304">
        <ele>181</ele>
        <time>2020-03-28T10:46:50Z</time>
      </trkpt>
      <trkpt lat="56.895249397018" lon="14.837777848988">
        <ele>180.8</ele>
        <time>2020-03-28T10:46:54Z</time>
      </trkpt>
      <trkpt lat="56.895373616776" lon="14.838037604069">
        <ele>179.8</ele>
        <time>2020-03-28T10:47:05Z</time>
      </trkpt>
      <trkpt lat="56.895385770531" lon="14.838049338729">
        <ele>179.6</ele>
        <time>2020-03-28T10:47:06Z</time>
      </trkpt>
      <trkpt lat="56.89550823009" lon="14.838094852446">
        <ele>180.2</ele>
        <time>2020-03-28T10:47:12Z</time>
      </trkpt>
      <trkpt lat="56.89557528529" lon="14.838038609897">
        <ele>179.4</ele>
        <time>2020-03-28T10:47:15Z</time>
      </trkpt>
      <trkpt lat="56.895615602229" lon="14.837980858606">
        <ele>179.4</ele>
        <time>2020-03-28T10:47:18Z</time>
      </trkpt>
      <trkpt lat="56.895774020139" lon="14.837789164553">
        <ele>180</ele>
        <time>2020-03-28T10:47:24Z</time>
      </trkpt>
      <trkpt lat="56.895880218812" lon="14.837667962279">
        <ele>180.2</ele>
        <time>2020-03-28T10:47:29Z</time>
      </trkpt>
      <trkpt lat="56.896070571761" lon="14.837687911201">
        <ele>179.6</ele>
        <time>2020-03-28T10:47:38Z</time>
      </trkpt>
      <trkpt lat="56.896123545369" lon="14.837715822928">
        <ele>179.6</ele>
        <time>2020-03-28T10:47:41Z</time>
      </trkpt>
      <trkpt lat="56.896174172045" lon="14.837726467941">
        <ele>179.4</ele>
        <time>2020-03-28T10:47:44Z</time>
      </trkpt>
      <trkpt lat="56.896205687989" lon="14.837725965027">
        <ele>179.2</ele>
        <time>2020-03-28T10:47:46Z</time>
      </trkpt>
      <trkpt lat="56.896229995499" lon="14.837739795162">
        <ele>179.2</ele>
        <time>2020-03-28T10:47:48Z</time>
      </trkpt>
      <trkpt lat="56.896302582753" lon="14.837763013025">
        <ele>179.2</ele>
        <time>2020-03-28T10:47:52Z</time>
      </trkpt>
      <trkpt lat="56.896345833357" lon="14.837778687178">
        <ele>179.2</ele>
        <time>2020-03-28T10:47:54Z</time>
      </trkpt>
      <trkpt lat="56.896406518313" lon="14.837817579194">
        <ele>180.4</ele>
        <time>2020-03-28T10:47:57Z</time>
      </trkpt>
      <trkpt lat="56.896416408955" lon="14.837831996062">
        <ele>181</ele>
        <time>2020-03-28T10:47:58Z</time>
      </trkpt>
      <trkpt lat="56.896425293769" lon="14.837845490921">
        <ele>181.8</ele>
        <time>2020-03-28T10:47:59Z</time>
      </trkpt>
      <trkpt lat="56.896439375361" lon="14.837858818142">
        <ele>182.4</ele>
        <time>2020-03-28T10:48:00Z</time>
      </trkpt>
      <trkpt lat="56.896480614309" lon="14.837892932475">
        <ele>183.4</ele>
        <time>2020-03-28T10:48:03Z</time>
      </trkpt>
      <trkpt lat="56.896517746126" lon="14.837925538066">
        <ele>183.8</ele>
        <time>2020-03-28T10:48:05Z</time>
      </trkpt>
      <trkpt lat="56.896584046955" lon="14.837992760904">
        <ele>184.6</ele>
        <time>2020-03-28T10:48:09Z</time>
      </trkpt>
      <trkpt lat="56.896636014735" lon="14.837989240506">
        <ele>185.2</ele>
        <time>2020-03-28T10:48:12Z</time>
      </trkpt>
      <trkpt lat="56.896677672778" lon="14.837994185827">
        <ele>184.8</ele>
        <time>2020-03-28T10:48:14Z</time>
      </trkpt>
      <trkpt lat="56.896718660269" lon="14.83801824188">
        <ele>183.6</ele>
        <time>2020-03-28T10:48:16Z</time>
      </trkpt>
      <trkpt lat="56.896799629423" lon="14.838121590707">
        <ele>182</ele>
        <time>2020-03-28T10:48:20Z</time>
      </trkpt>
      <trkpt lat="56.896864505329" lon="14.838204990612">
        <ele>181</ele>
        <time>2020-03-28T10:48:24Z</time>
      </trkpt>
      <trkpt lat="56.896878084007" lon="14.838224855715">
        <ele>180.6</ele>
        <time>2020-03-28T10:48:25Z</time>
      </trkpt>
      <trkpt lat="56.896899290214" lon="14.838259556781">
        <ele>180.2</ele>
        <time>2020-03-28T10:48:27Z</time>
      </trkpt>
      <trkpt lat="56.896907504476" lon="14.838274141287">
        <ele>179.6</ele>
        <time>2020-03-28T10:48:28Z</time>
      </trkpt>
      <trkpt lat="56.896951844727" lon="14.838408503144">
        <ele>178.6</ele>
        <time>2020-03-28T10:48:32Z</time>
      </trkpt>
      <trkpt lat="56.896963244111" lon="14.838439348536">
        <ele>178.6</ele>
        <time>2020-03-28T10:48:33Z</time>
      </trkpt>
      <trkpt lat="56.896977241884" lon="14.838502212786">
        <ele>178.4</ele>
        <time>2020-03-28T10:48:35Z</time>
      </trkpt>
      <trkpt lat="56.897016050081" lon="14.838536662395">
        <ele>177.6</ele>
        <time>2020-03-28T10:48:37Z</time>
      </trkpt>
      <trkpt lat="56.897051086423" lon="14.838612099495">
        <ele>176.8</ele>
        <time>2020-03-28T10:48:40Z</time>
      </trkpt>
      <trkpt lat="56.897112693388" lon="14.838661301248">
        <ele>176.4</ele>
        <time>2020-03-28T10:48:44Z</time>
      </trkpt>
      <trkpt lat="56.897140940391" lon="14.838665240741">
        <ele>176.4</ele>
        <time>2020-03-28T10:48:47Z</time>
      </trkpt>
      <trkpt lat="56.89721227036" lon="14.838564993217">
        <ele>177.4</ele>
        <time>2020-03-28T10:48:54Z</time>
      </trkpt>
      <trkpt lat="56.89721562312" lon="14.838503134795">
        <ele>178.2</ele>
        <time>2020-03-28T10:48:56Z</time>
      </trkpt>
      <trkpt lat="56.897218640604" lon="14.83847589362">
        <ele>178.6</ele>
        <time>2020-03-28T10:48:57Z</time>
      </trkpt>
      <trkpt lat="56.897240601182" lon="14.838392493715">
        <ele>178.8</ele>
        <time>2020-03-28T10:49:00Z</time>
      </trkpt>
      <trkpt lat="56.897227693056" lon="14.838202308404">
        <ele>179.8</ele>
        <time>2020-03-28T10:49:05Z</time>
      </trkpt>
      <trkpt lat="56.897182011701" lon="14.838099881586">
        <ele>180.6</ele>
        <time>2020-03-28T10:49:09Z</time>
      </trkpt>
      <trkpt lat="56.897185951194" lon="14.838106670925">
        <ele>180.6</ele>
        <time>2020-03-28T10:49:11Z</time>
      </trkpt>
      <trkpt lat="56.897200284243" lon="14.838200212929">
        <ele>180.4</ele>
        <time>2020-03-28T10:49:14Z</time>
      </trkpt>
      <trkpt lat="56.89724663615" lon="14.838538841689">
        <ele>178.8</ele>
        <time>2020-03-28T10:49:23Z</time>
      </trkpt>
      <trkpt lat="56.897246468512" lon="14.838599191369">
        <ele>177.4</ele>
        <time>2020-03-28T10:49:25Z</time>
      </trkpt>
      <trkpt lat="56.897217802414" lon="14.838676556306">
        <ele>176.4</ele>
        <time>2020-03-28T10:49:28Z</time>
      </trkpt>
      <trkpt lat="56.897123254582" lon="14.838969336073">
        <ele>175.6</ele>
        <time>2020-03-28T10:49:35Z</time>
      </trkpt>
      <trkpt lat="56.897124679505" lon="14.839071930529">
        <ele>175.2</ele>
        <time>2020-03-28T10:49:37Z</time>
      </trkpt>
      <trkpt lat="56.897110933189" lon="14.839204196911">
        <ele>173.6</ele>
        <time>2020-03-28T10:49:40Z</time>
      </trkpt>
      <trkpt lat="56.897085536032" lon="14.839396310059">
        <ele>172.2</ele>
        <time>2020-03-28T10:49:44Z</time>
      </trkpt>
      <trkpt lat="56.897063826911" lon="14.839470154598">
        <ele>170.2</ele>
        <time>2020-03-28T10:49:46Z</time>
      </trkpt>
      <trkpt lat="56.897049326224" lon="14.839504939483">
        <ele>168.8</ele>
        <time>2020-03-28T10:49:48Z</time>
      </trkpt>
      <trkpt lat="56.897038513573" lon="14.839575431262">
        <ele>168.4</ele>
        <time>2020-03-28T10:49:51Z</time>
      </trkpt>
      <trkpt lat="56.897013786968" lon="14.839675762605">
        <ele>168.6</ele>
        <time>2020-03-28T10:49:53Z</time>
      </trkpt>
      <trkpt lat="56.896935919117" lon="14.839976086082">
        <ele>168.4</ele>
        <time>2020-03-28T10:49:59Z</time>
      </trkpt>
      <trkpt lat="56.896920915516" lon="14.84005085263">
        <ele>167.6</ele>
        <time>2020-03-28T10:50:01Z</time>
      </trkpt>
      <trkpt lat="56.896895685997" lon="14.840260316311">
        <ele>166.6</ele>
        <time>2020-03-28T10:50:05Z</time>
      </trkpt>
      <trkpt lat="56.896875066523" lon="14.840586539859">
        <ele>166.4</ele>
        <time>2020-03-28T10:50:11Z</time>
      </trkpt>
      <trkpt lat="56.896899876947" lon="14.840901280204">
        <ele>166.8</ele>
        <time>2020-03-28T10:50:18Z</time>
      </trkpt>
      <trkpt lat="56.89690800739" lon="14.841056010078">
        <ele>167</ele>
        <time>2020-03-28T10:50:23Z</time>
      </trkpt>
      <trkpt lat="56.89690549282" lon="14.841117700862">
        <ele>167.6</ele>
        <time>2020-03-28T10:50:25Z</time>
      </trkpt>
      <trkpt lat="56.896904738449" lon="14.84113044135">
        <ele>167.8</ele>
        <time>2020-03-28T10:50:26Z</time>
      </trkpt>
      <trkpt lat="56.896941451171" lon="14.841285925595">
        <ele>168.4</ele>
        <time>2020-03-28T10:50:32Z</time>
      </trkpt>
      <trkpt lat="56.896963244111" lon="14.84134082704">
        <ele>168.8</ele>
        <time>2020-03-28T10:50:34Z</time>
      </trkpt>
      <trkpt lat="56.896979337359" lon="14.841353316071">
        <ele>169</ele>
        <time>2020-03-28T10:50:35Z</time>
      </trkpt>
      <trkpt lat="56.897013870787" lon="14.841377120667">
        <ele>169.6</ele>
        <time>2020-03-28T10:50:37Z</time>
      </trkpt>
      <trkpt lat="56.897028203836" lon="14.841390783164">
        <ele>169.8</ele>
        <time>2020-03-28T10:50:38Z</time>
      </trkpt>
      <trkpt lat="56.897043542713" lon="14.84141291138">
        <ele>169.8</ele>
        <time>2020-03-28T10:50:39Z</time>
      </trkpt>
      <trkpt lat="56.897191064153" lon="14.841501843339">
        <ele>171</ele>
        <time>2020-03-28T10:50:46Z</time>
      </trkpt>
      <trkpt lat="56.897328192037" lon="14.84165850105">
        <ele>169.8</ele>
        <time>2020-03-28T10:50:54Z</time>
      </trkpt>
      <trkpt lat="56.897364318026" lon="14.841650202969">
        <ele>169.4</ele>
        <time>2020-03-28T10:50:56Z</time>
      </trkpt>
      <trkpt lat="56.897440090402" lon="14.841696638695">
        <ele>168.8</ele>
        <time>2020-03-28T10:51:00Z</time>
      </trkpt>
      <trkpt lat="56.89746288917" lon="14.841702757482">
        <ele>168.6</ele>
        <time>2020-03-28T10:51:01Z</time>
      </trkpt>
      <trkpt lat="56.897481245531" lon="14.841721113843">
        <ele>168.6</ele>
        <time>2020-03-28T10:51:02Z</time>
      </trkpt>
      <trkpt lat="56.897604124185" lon="14.842061754259">
        <ele>168.4</ele>
        <time>2020-03-28T10:51:13Z</time>
      </trkpt>
      <trkpt lat="56.897726416106" lon="14.842292759423">
        <ele>168</ele>
        <time>2020-03-28T10:51:21Z</time>
      </trkpt>
      <trkpt lat="56.89778643051" lon="14.842506414054">
        <ele>168</ele>
        <time>2020-03-28T10:51:28Z</time>
      </trkpt>
      <trkpt lat="56.897854742995" lon="14.842603392637">
        <ele>168.2</ele>
        <time>2020-03-28T10:51:31Z</time>
      </trkpt>
      <trkpt lat="56.897840242308" lon="14.842937746628">
        <ele>168</ele>
        <time>2020-03-28T10:51:39Z</time>
      </trkpt>
      <trkpt lat="56.897791711107" lon="14.843273776999">
        <ele>168.8</ele>
        <time>2020-03-28T10:51:48Z</time>
      </trkpt>
      <trkpt lat="56.897768996158" lon="14.843452730564">
        <ele>168.6</ele>
        <time>2020-03-28T10:51:52Z</time>
      </trkpt>
      <trkpt lat="56.897834374978" lon="14.843637383821">
        <ele>167.6</ele>
        <time>2020-03-28T10:51:56Z</time>
      </trkpt>
      <trkpt lat="56.897853569529" lon="14.843688345773">
        <ele>167.6</ele>
        <time>2020-03-28T10:51:57Z</time>
      </trkpt>
      <trkpt lat="56.897855078271" lon="14.843739140087">
        <ele>167.6</ele>
        <time>2020-03-28T10:51:58Z</time>
      </trkpt>
      <trkpt lat="56.897770840176" lon="14.844051449681">
        <ele>167.4</ele>
        <time>2020-03-28T10:52:08Z</time>
      </trkpt>
      <trkpt lat="56.897662797485" lon="14.844365268017">
        <ele>168</ele>
        <time>2020-03-28T10:52:15Z</time>
      </trkpt>
      <trkpt lat="56.897566154178" lon="14.844551681473">
        <ele>168.6</ele>
        <time>2020-03-28T10:52:20Z</time>
      </trkpt>
      <trkpt lat="56.897471690165" lon="14.844838510091">
        <ele>169.2</ele>
        <time>2020-03-28T10:52:26Z</time>
      </trkpt>
      <trkpt lat="56.89739499578" lon="14.845165571829">
        <ele>169</ele>
        <time>2020-03-28T10:52:34Z</time>
      </trkpt>
      <trkpt lat="56.897326850933" lon="14.845492046834">
        <ele>169</ele>
        <time>2020-03-28T10:52:41Z</time>
      </trkpt>
      <trkpt lat="56.897320061594" lon="14.845842242616">
        <ele>169.4</ele>
        <time>2020-03-28T10:52:47Z</time>
      </trkpt>
      <trkpt lat="56.897443946076" lon="14.846111217787">
        <ele>169</ele>
        <time>2020-03-28T10:52:57Z</time>
      </trkpt>
      <trkpt lat="56.897475713477" lon="14.846142566093">
        <ele>169.2</ele>
        <time>2020-03-28T10:52:59Z</time>
      </trkpt>
      <trkpt lat="56.897524160859" lon="14.84615036126">
        <ele>169.8</ele>
        <time>2020-03-28T10:53:01Z</time>
      </trkpt>
      <trkpt lat="56.897567746739" lon="14.846137704591">
        <ele>171.2</ele>
        <time>2020-03-28T10:53:03Z</time>
      </trkpt>
      <trkpt lat="56.897626922953" lon="14.846131753442">
        <ele>172.4</ele>
        <time>2020-03-28T10:53:06Z</time>
      </trkpt>
      <trkpt lat="56.897774444393" lon="14.846138207505">
        <ele>171.2</ele>
        <time>2020-03-28T10:53:12Z</time>
      </trkpt>
      <trkpt lat="56.897927665525" lon="14.846192354579">
        <ele>170</ele>
        <time>2020-03-28T10:53:18Z</time>
      </trkpt>
      <trkpt lat="56.898008047946" lon="14.846211968225">
        <ele>168.8</ele>
        <time>2020-03-28T10:53:21Z</time>
      </trkpt>
      <trkpt lat="56.898027996868" lon="14.846220182487">
        <ele>168.8</ele>
        <time>2020-03-28T10:53:22Z</time>
      </trkpt>
      <trkpt lat="56.89807728244" lon="14.846257817218">
        <ele>169.2</ele>
        <time>2020-03-28T10:53:25Z</time>
      </trkpt>
      <trkpt lat="56.89812422108" lon="14.846301738374">
        <ele>169.6</ele>
        <time>2020-03-28T10:53:28Z</time>
      </trkpt>
      <trkpt lat="56.898327314517" lon="14.846396705301">
        <ele>169.2</ele>
        <time>2020-03-28T10:53:33Z</time>
      </trkpt>
      <trkpt lat="56.898463939487" lon="14.8464822845">
        <ele>169.2</ele>
        <time>2020-03-28T10:53:35Z</time>
      </trkpt>
      <trkpt lat="56.898506519539" lon="14.846623770972">
        <ele>169</ele>
        <time>2020-03-28T10:53:40Z</time>
      </trkpt>
      <trkpt lat="56.898501825675" lon="14.846682276634">
        <ele>168.6</ele>
        <time>2020-03-28T10:53:43Z</time>
      </trkpt>
      <trkpt lat="56.898514230887" lon="14.846708679619">
        <ele>167.8</ele>
        <time>2020-03-28T10:53:45Z</time>
      </trkpt>
      <trkpt lat="56.898526468461" lon="14.846733322405">
        <ele>167.6</ele>
        <time>2020-03-28T10:53:46Z</time>
      </trkpt>
      <trkpt lat="56.898562091536" lon="14.846883190777">
        <ele>167.4</ele>
        <time>2020-03-28T10:53:49Z</time>
      </trkpt>
      <trkpt lat="56.898578100965" lon="14.846942618448">
        <ele>167.4</ele>
        <time>2020-03-28T10:53:51Z</time>
      </trkpt>
      <trkpt lat="56.898585560856" lon="14.846992826029">
        <ele>168</ele>
        <time>2020-03-28T10:53:54Z</time>
      </trkpt>
      <trkpt lat="56.898587823969" lon="14.847115788502">
        <ele>167.4</ele>
        <time>2020-03-28T10:53:58Z</time>
      </trkpt>
      <trkpt lat="56.898586985779" lon="14.847141856211">
        <ele>167.2</ele>
        <time>2020-03-28T10:53:59Z</time>
      </trkpt>
      <trkpt lat="56.898583800657" lon="14.847191560878">
        <ele>167</ele>
        <time>2020-03-28T10:54:01Z</time>
      </trkpt>
      <trkpt lat="56.898574245291" lon="14.847313266066">
        <ele>167</ele>
        <time>2020-03-28T10:54:07Z</time>
      </trkpt>
      <trkpt lat="56.898573658558" lon="14.847414770875">
        <ele>166.8</ele>
        <time>2020-03-28T10:54:12Z</time>
      </trkpt>
      <trkpt lat="56.898585728494" lon="14.847470594329">
        <ele>166.8</ele>
        <time>2020-03-28T10:54:14Z</time>
      </trkpt>
      <trkpt lat="56.89860785671" lon="14.847580648676">
        <ele>167.4</ele>
        <time>2020-03-28T10:54:18Z</time>
      </trkpt>
      <trkpt lat="56.898569048513" lon="14.847751052703">
        <ele>166.8</ele>
        <time>2020-03-28T10:54:24Z</time>
      </trkpt>
      <trkpt lat="56.898547926125" lon="14.847801344103">
        <ele>167.4</ele>
        <time>2020-03-28T10:54:27Z</time>
      </trkpt>
      <trkpt lat="56.898459664718" lon="14.847933610485">
        <ele>167.4</ele>
        <time>2020-03-28T10:54:34Z</time>
      </trkpt>
      <trkpt lat="56.898418006675" lon="14.84795917528">
        <ele>167.2</ele>
        <time>2020-03-28T10:54:38Z</time>
      </trkpt>
      <trkpt lat="56.898392106604" lon="14.847971831949">
        <ele>167</ele>
        <time>2020-03-28T10:54:40Z</time>
      </trkpt>
      <trkpt lat="56.898365116886" lon="14.848008712309">
        <ele>167</ele>
        <time>2020-03-28T10:54:43Z</time>
      </trkpt>
      <trkpt lat="56.898333098028" lon="14.848045089755">
        <ele>167</ele>
        <time>2020-03-28T10:54:46Z</time>
      </trkpt>
      <trkpt lat="56.898318345884" lon="14.848042910461">
        <ele>167.6</ele>
        <time>2020-03-28T10:54:48Z</time>
      </trkpt>
      <trkpt lat="56.89829185908" lon="14.848044335384">
        <ele>168.2</ele>
        <time>2020-03-28T10:54:51Z</time>
      </trkpt>
      <trkpt lat="56.89825833148" lon="14.848086244884">
        <ele>168.4</ele>
        <time>2020-03-28T10:54:53Z</time>
      </trkpt>
      <trkpt lat="56.898194461402" lon="14.848257068006">
        <ele>168.4</ele>
        <time>2020-03-28T10:55:06Z</time>
      </trkpt>
      <trkpt lat="56.898154228282" lon="14.848343820671">
        <ele>168.2</ele>
        <time>2020-03-28T10:55:10Z</time>
      </trkpt>
      <trkpt lat="56.898065631599" lon="14.848404924722">
        <ele>169</ele>
        <time>2020-03-28T10:55:15Z</time>
      </trkpt>
      <trkpt lat="56.897986590282" lon="14.848475919415">
        <ele>169.8</ele>
        <time>2020-03-28T10:55:19Z</time>
      </trkpt>
      <trkpt lat="56.897962701867" lon="14.848533251611">
        <ele>170</ele>
        <time>2020-03-28T10:55:20Z</time>
      </trkpt>
      <trkpt lat="56.897854742995" lon="14.848726454406">
        <ele>171</ele>
        <time>2020-03-28T10:55:26Z</time>
      </trkpt>
      <trkpt lat="56.897710239039" lon="14.848846567033">
        <ele>171.8</ele>
        <time>2020-03-28T10:55:32Z</time>
      </trkpt>
      <trkpt lat="56.897618121958" lon="14.848935163716">
        <ele>171.2</ele>
        <time>2020-03-28T10:55:37Z</time>
      </trkpt>
      <trkpt lat="56.897604710918" lon="14.848982186175">
        <ele>170.8</ele>
        <time>2020-03-28T10:55:39Z</time>
      </trkpt>
      <trkpt lat="56.897594904095" lon="14.849120571344">
        <ele>171</ele>
        <time>2020-03-28T10:55:43Z</time>
      </trkpt>
      <trkpt lat="56.897603118357" lon="14.849160553007">
        <ele>171.6</ele>
        <time>2020-03-28T10:55:45Z</time>
      </trkpt>
      <trkpt lat="56.897603788909" lon="14.849221573239">
        <ele>171.6</ele>
        <time>2020-03-28T10:55:47Z</time>
      </trkpt>
      <trkpt lat="56.897603285995" lon="14.849295920692">
        <ele>171.4</ele>
        <time>2020-03-28T10:55:49Z</time>
      </trkpt>
      <trkpt lat="56.89758191215" lon="14.849478897569">
        <ele>171.2</ele>
        <time>2020-03-28T10:55:53Z</time>
      </trkpt>
      <trkpt lat="56.897540421745" lon="14.849661287713">
        <ele>171.2</ele>
        <time>2020-03-28T10:55:59Z</time>
      </trkpt>
      <trkpt lat="56.897518964081" lon="14.849740664306">
        <ele>171.2</ele>
        <time>2020-03-28T10:56:02Z</time>
      </trkpt>
      <trkpt lat="56.897498009331" lon="14.849857005078">
        <ele>171.8</ele>
        <time>2020-03-28T10:56:10Z</time>
      </trkpt>
      <trkpt lat="56.897479401513" lon="14.849948116331">
        <ele>171.8</ele>
        <time>2020-03-28T10:56:14Z</time>
      </trkpt>
      <trkpt lat="56.897452579433" lon="14.85006303218">
        <ele>172.2</ele>
        <time>2020-03-28T10:56:18Z</time>
      </trkpt>
      <trkpt lat="56.897424919163" lon="14.850105276956">
        <ele>173</ele>
        <time>2020-03-28T10:56:20Z</time>
      </trkpt>
      <trkpt lat="56.89741511234" lon="14.850134362149">
        <ele>173.4</ele>
        <time>2020-03-28T10:56:21Z</time>
      </trkpt>
      <trkpt lat="56.897348140959" lon="14.850341814174">
        <ele>174.4</ele>
        <time>2020-03-28T10:56:27Z</time>
      </trkpt>
      <trkpt lat="56.897270608384" lon="14.850425633174">
        <ele>174.8</ele>
        <time>2020-03-28T10:56:33Z</time>
      </trkpt>
      <trkpt lat="56.897245295046" lon="14.850478606782">
        <ele>174.8</ele>
        <time>2020-03-28T10:56:36Z</time>
      </trkpt>
      <trkpt lat="56.897219897889" lon="14.850534681693">
        <ele>174.8</ele>
        <time>2020-03-28T10:56:40Z</time>
      </trkpt>
      <trkpt lat="56.897202379718" lon="14.850595953382">
        <ele>175</ele>
        <time>2020-03-28T10:56:44Z</time>
      </trkpt>
      <trkpt lat="56.897190225963" lon="14.850634342484">
        <ele>175.2</ele>
        <time>2020-03-28T10:56:47Z</time>
      </trkpt>
      <trkpt lat="56.897165750815" lon="14.850720424597">
        <ele>175.6</ele>
        <time>2020-03-28T10:56:52Z</time>
      </trkpt>
      <trkpt lat="56.897165666996" lon="14.850740205881">
        <ele>175.8</ele>
        <time>2020-03-28T10:56:53Z</time>
      </trkpt>
      <trkpt lat="56.897162984788" lon="14.850764094296">
        <ele>175.8</ele>
        <time>2020-03-28T10:56:54Z</time>
      </trkpt>
      <trkpt lat="56.897158207105" lon="14.850800807018">
        <ele>176</ele>
        <time>2020-03-28T10:56:56Z</time>
      </trkpt>
      <trkpt lat="56.897156027811" lon="14.850850511685">
        <ele>176</ele>
        <time>2020-03-28T10:56:58Z</time>
      </trkpt>
      <trkpt lat="56.897171031412" lon="14.850930223554">
        <ele>175.8</ele>
        <time>2020-03-28T10:57:02Z</time>
      </trkpt>
      <trkpt lat="56.89717455181" lon="14.851066597067">
        <ele>176</ele>
        <time>2020-03-28T10:57:06Z</time>
      </trkpt>
      <trkpt lat="56.897181424968" lon="14.851087719455">
        <ele>176</ele>
        <time>2020-03-28T10:57:08Z</time>
      </trkpt>
      <trkpt lat="56.897177569294" lon="14.851215627249">
        <ele>175.8</ele>
        <time>2020-03-28T10:57:15Z</time>
      </trkpt>
      <trkpt lat="56.897166505186" lon="14.851320149542">
        <ele>176</ele>
        <time>2020-03-28T10:57:18Z</time>
      </trkpt>
      <trkpt lat="56.897169438851" lon="14.851367591096">
        <ele>176</ele>
        <time>2020-03-28T10:57:20Z</time>
      </trkpt>
      <trkpt lat="56.897150747214" lon="14.851489883017">
        <ele>176.2</ele>
        <time>2020-03-28T10:57:26Z</time>
      </trkpt>
      <trkpt lat="56.89713934783" lon="14.851591806921">
        <ele>176.4</ele>
        <time>2020-03-28T10:57:30Z</time>
      </trkpt>
      <trkpt lat="56.89713934783" lon="14.851632710593">
        <ele>176.6</ele>
        <time>2020-03-28T10:57:32Z</time>
      </trkpt>
      <trkpt lat="56.897150328119" lon="14.851659700311">
        <ele>176.8</ele>
        <time>2020-03-28T10:57:35Z</time>
      </trkpt>
      <trkpt lat="56.897160973132" lon="14.851733125755">
        <ele>176.6</ele>
        <time>2020-03-28T10:57:39Z</time>
      </trkpt>
      <trkpt lat="56.897164744987" lon="14.851742513483">
        <ele>176.8</ele>
        <time>2020-03-28T10:57:40Z</time>
      </trkpt>
      <trkpt lat="56.897169187394" lon="14.85183412765">
        <ele>176.6</ele>
        <time>2020-03-28T10:57:43Z</time>
      </trkpt>
      <trkpt lat="56.897178156027" lon="14.851884083774">
        <ele>176.6</ele>
        <time>2020-03-28T10:57:45Z</time>
      </trkpt>
      <trkpt lat="56.897177234018" lon="14.851965136747">
        <ele>176.6</ele>
        <time>2020-03-28T10:57:48Z</time>
      </trkpt>
      <trkpt lat="56.897203301727" lon="14.852055158353">
        <ele>176.4</ele>
        <time>2020-03-28T10:57:52Z</time>
      </trkpt>
      <trkpt lat="56.897251832928" lon="14.85204032239">
        <ele>176.6</ele>
        <time>2020-03-28T10:57:57Z</time>
      </trkpt>
      <trkpt lat="56.897282343044" lon="14.852047111729">
        <ele>176.8</ele>
        <time>2020-03-28T10:57:59Z</time>
      </trkpt>
      <trkpt lat="56.897318636671" lon="14.852041747313">
        <ele>176.4</ele>
        <time>2020-03-28T10:58:02Z</time>
      </trkpt>
      <trkpt lat="56.897347889502" lon="14.852054320163">
        <ele>176</ele>
        <time>2020-03-28T10:58:04Z</time>
      </trkpt>
      <trkpt lat="56.89721897588" lon="14.852156327886">
        <ele>176.4</ele>
        <time>2020-03-28T10:58:25Z</time>
      </trkpt>
      <trkpt lat="56.897207408858" lon="14.852117352051">
        <ele>176.4</ele>
        <time>2020-03-28T10:58:27Z</time>
      </trkpt>
      <trkpt lat="56.897096767778" lon="14.851861285006">
        <ele>177</ele>
        <time>2020-03-28T10:58:37Z</time>
      </trkpt>
      <trkpt lat="56.897059552142" lon="14.851739328361">
        <ele>177</ele>
        <time>2020-03-28T10:58:41Z</time>
      </trkpt>
      <trkpt lat="56.897058965409" lon="14.851685432744">
        <ele>177</ele>
        <time>2020-03-28T10:58:43Z</time>
      </trkpt>
      <trkpt lat="56.897030215492" lon="14.851602032839">
        <ele>176.8</ele>
        <time>2020-03-28T10:58:47Z</time>
      </trkpt>
      <trkpt lat="56.89697087164" lon="14.851528858852">
        <ele>177</ele>
        <time>2020-03-28T10:58:51Z</time>
      </trkpt>
      <trkpt lat="56.896943462827" lon="14.85150723355">
        <ele>177</ele>
        <time>2020-03-28T10:58:53Z</time>
      </trkpt>
      <trkpt lat="56.896867271356" lon="14.851512514147">
        <ele>177</ele>
        <time>2020-03-28T10:58:57Z</time>
      </trkpt>
      <trkpt lat="56.896777836483" lon="14.851444536938">
        <ele>177</ele>
        <time>2020-03-28T10:59:03Z</time>
      </trkpt>
      <trkpt lat="56.896740620847" lon="14.851407405121">
        <ele>176.8</ele>
        <time>2020-03-28T10:59:06Z</time>
      </trkpt>
      <trkpt lat="56.896685300307" lon="14.851358371006">
        <ele>177.2</ele>
        <time>2020-03-28T10:59:10Z</time>
      </trkpt>
      <trkpt lat="56.896675493484" lon="14.851352503676">
        <ele>177.2</ele>
        <time>2020-03-28T10:59:11Z</time>
      </trkpt>
      <trkpt lat="56.896644396635" lon="14.851333057668">
        <ele>177.6</ele>
        <time>2020-03-28T10:59:14Z</time>
      </trkpt>
      <trkpt lat="56.896629309215" lon="14.85132366994">
        <ele>177.8</ele>
        <time>2020-03-28T10:59:16Z</time>
      </trkpt>
      <trkpt lat="56.89662469917" lon="14.851310677995">
        <ele>177.8</ele>
        <time>2020-03-28T10:59:17Z</time>
      </trkpt>
      <trkpt lat="56.896614473252" lon="14.851287795408">
        <ele>178</ele>
        <time>2020-03-28T10:59:19Z</time>
      </trkpt>
      <trkpt lat="56.896611539587" lon="14.851281592802">
        <ele>178</ele>
        <time>2020-03-28T10:59:20Z</time>
      </trkpt>
      <trkpt lat="56.89648053049" lon="14.851037763331">
        <ele>177.8</ele>
        <time>2020-03-28T10:59:38Z</time>
      </trkpt>
      <trkpt lat="56.896395286567" lon="14.850878507231">
        <ele>178.8</ele>
        <time>2020-03-28T10:59:43Z</time>
      </trkpt>
      <trkpt lat="56.896282047098" lon="14.850588744948">
        <ele>178.2</ele>
        <time>2020-03-28T10:59:52Z</time>
      </trkpt>
      <trkpt lat="56.896240305236" lon="14.850541806308">
        <ele>177.6</ele>
        <time>2020-03-28T10:59:55Z</time>
      </trkpt>
      <trkpt lat="56.896236868657" lon="14.850475505479">
        <ele>177.2</ele>
        <time>2020-03-28T10:59:57Z</time>
      </trkpt>
      <trkpt lat="56.896284226392" lon="14.850307448384">
        <ele>176.6</ele>
        <time>2020-03-28T11:00:01Z</time>
      </trkpt>
      <trkpt lat="56.896367961573" lon="14.850002431043">
        <ele>177</ele>
        <time>2020-03-28T11:00:08Z</time>
      </trkpt>
      <trkpt lat="56.896409451978" lon="14.849774611001">
        <ele>175.6</ele>
        <time>2020-03-28T11:00:13Z</time>
      </trkpt>
      <trkpt lat="56.896468292916" lon="14.849498427396">
        <ele>175</ele>
        <time>2020-03-28T11:00:21Z</time>
      </trkpt>
      <trkpt lat="56.896354299076" lon="14.849236912116">
        <ele>174.8</ele>
        <time>2020-03-28T11:00:30Z</time>
      </trkpt>
      <trkpt lat="56.896340217484" lon="14.849227859664">
        <ele>174.6</ele>
        <time>2020-03-28T11:00:31Z</time>
      </trkpt>
      <trkpt lat="56.896211220043" lon="14.848991154808">
        <ele>174</ele>
        <time>2020-03-28T11:00:45Z</time>
      </trkpt>
      <trkpt lat="56.896205101256" lon="14.84894823948">
        <ele>174</ele>
        <time>2020-03-28T11:00:46Z</time>
      </trkpt>
      <trkpt lat="56.896138716608" lon="14.84863475642">
        <ele>174</ele>
        <time>2020-03-28T11:00:54Z</time>
      </trkpt>
      <trkpt lat="56.896078534566" lon="14.84846376566">
        <ele>173.6</ele>
        <time>2020-03-28T11:01:01Z</time>
      </trkpt>
      <trkpt lat="56.896106530112" lon="14.848216331972">
        <ele>172.6</ele>
        <time>2020-03-28T11:01:09Z</time>
      </trkpt>
      <trkpt lat="56.89611759422" lon="14.848201328371">
        <ele>172.4</ele>
        <time>2020-03-28T11:01:10Z</time>
      </trkpt>
      <trkpt lat="56.896144583938" lon="14.848126729461">
        <ele>172</ele>
        <time>2020-03-28T11:01:13Z</time>
      </trkpt>
      <trkpt lat="56.896132346364" lon="14.848025140833">
        <ele>171.4</ele>
        <time>2020-03-28T11:01:16Z</time>
      </trkpt>
      <trkpt lat="56.896130418527" lon="14.847991110319">
        <ele>171.2</ele>
        <time>2020-03-28T11:01:17Z</time>
      </trkpt>
      <trkpt lat="56.896156737693" lon="14.847839481748">
        <ele>170.6</ele>
        <time>2020-03-28T11:01:21Z</time>
      </trkpt>
      <trkpt lat="56.896166544516" lon="14.847747448486">
        <ele>170.8</ele>
        <time>2020-03-28T11:01:24Z</time>
      </trkpt>
      <trkpt lat="56.896176351339" lon="14.847699923113">
        <ele>171</ele>
        <time>2020-03-28T11:01:26Z</time>
      </trkpt>
      <trkpt lat="56.896203676333" lon="14.847559274831">
        <ele>171</ele>
        <time>2020-03-28T11:01:31Z</time>
      </trkpt>
      <trkpt lat="56.896205939446" lon="14.847451818873">
        <ele>170.6</ele>
        <time>2020-03-28T11:01:34Z</time>
      </trkpt>
      <trkpt lat="56.896132514002" lon="14.847287365995">
        <ele>170.6</ele>
        <time>2020-03-28T11:01:38Z</time>
      </trkpt>
      <trkpt lat="56.896051796305" lon="14.847080668341">
        <ele>171</ele>
        <time>2020-03-28T11:01:46Z</time>
      </trkpt>
      <trkpt lat="56.896043665862" lon="14.84702375524">
        <ele>171</ele>
        <time>2020-03-28T11:01:48Z</time>
      </trkpt>
      <trkpt lat="56.895970324237" lon="14.846801048157">
        <ele>170.8</ele>
        <time>2020-03-28T11:01:57Z</time>
      </trkpt>
      <trkpt lat="56.895928750013" lon="14.846685797032">
        <ele>170.4</ele>
        <time>2020-03-28T11:02:03Z</time>
      </trkpt>
      <trkpt lat="56.89592564871" lon="14.846651179785">
        <ele>170.2</ele>
        <time>2020-03-28T11:02:05Z</time>
      </trkpt>
      <trkpt lat="56.895906957073" lon="14.846604073507">
        <ele>170</ele>
        <time>2020-03-28T11:02:07Z</time>
      </trkpt>
      <trkpt lat="56.895806374273" lon="14.846475495161">
        <ele>170</ele>
        <time>2020-03-28T11:02:21Z</time>
      </trkpt>
      <trkpt lat="56.895764045678" lon="14.846397543491">
        <ele>170.2</ele>
        <time>2020-03-28T11:02:25Z</time>
      </trkpt>
      <trkpt lat="56.895740995453" lon="14.846363010063">
        <ele>170.2</ele>
        <time>2020-03-28T11:02:27Z</time>
      </trkpt>
      <trkpt lat="56.895714927744" lon="14.846348593195">
        <ele>170.2</ele>
        <time>2020-03-28T11:02:30Z</time>
      </trkpt>
      <trkpt lat="56.895694056813" lon="14.846364351167">
        <ele>170.2</ele>
        <time>2020-03-28T11:02:32Z</time>
      </trkpt>
      <trkpt lat="56.895667821466" lon="14.846413469101">
        <ele>170.4</ele>
        <time>2020-03-28T11:02:35Z</time>
      </trkpt>
      <trkpt lat="56.895648459277" lon="14.846440794095">
        <ele>171.6</ele>
        <time>2020-03-28T11:02:38Z</time>
      </trkpt>
      <trkpt lat="56.895642591947" lon="14.846516063557">
        <ele>172</ele>
        <time>2020-03-28T11:02:41Z</time>
      </trkpt>
      <trkpt lat="56.895626833975" lon="14.846606001344">
        <ele>171.8</ele>
        <time>2020-03-28T11:02:45Z</time>
      </trkpt>
      <trkpt lat="56.895614512582" lon="14.846661154246">
        <ele>172</ele>
        <time>2020-03-28T11:02:47Z</time>
      </trkpt>
      <trkpt lat="56.895590875624" lon="14.84670608123">
        <ele>171.8</ele>
        <time>2020-03-28T11:02:49Z</time>
      </trkpt>
      <trkpt lat="56.8955660652" lon="14.846735669337">
        <ele>172.2</ele>
        <time>2020-03-28T11:02:51Z</time>
      </trkpt>
      <trkpt lat="56.895505966977" lon="14.846755366802">
        <ele>172.2</ele>
        <time>2020-03-28T11:02:55Z</time>
      </trkpt>
      <trkpt lat="56.895484425494" lon="14.846757127001">
        <ele>172.6</ele>
        <time>2020-03-28T11:02:57Z</time>
      </trkpt>
      <trkpt lat="56.89546883516" lon="14.846777495018">
        <ele>172.6</ele>
        <time>2020-03-28T11:02:58Z</time>
      </trkpt>
      <trkpt lat="56.895397505191" lon="14.846814878292">
        <ele>171.6</ele>
        <time>2020-03-28T11:03:05Z</time>
      </trkpt>
      <trkpt lat="56.895326426679" lon="14.84683683887">
        <ele>171.2</ele>
        <time>2020-03-28T11:03:12Z</time>
      </trkpt>
      <trkpt lat="56.895322906281" lon="14.846677079856">
        <ele>171.6</ele>
        <time>2020-03-28T11:03:23Z</time>
      </trkpt>
      <trkpt lat="56.895299856056" lon="14.846546741311">
        <ele>172</ele>
        <time>2020-03-28T11:03:28Z</time>
      </trkpt>
      <trkpt lat="56.89530790268" lon="14.846441967561">
        <ele>172.2</ele>
        <time>2020-03-28T11:03:34Z</time>
      </trkpt>
      <trkpt lat="56.895285858283" lon="14.846381534062">
        <ele>172.4</ele>
        <time>2020-03-28T11:03:38Z</time>
      </trkpt>
      <trkpt lat="56.895266496094" lon="14.846345408073">
        <ele>172.4</ele>
        <time>2020-03-28T11:03:41Z</time>
      </trkpt>
      <trkpt lat="56.895239674014" lon="14.846299056166">
        <ele>172.2</ele>
        <time>2020-03-28T11:03:45Z</time>
      </trkpt>
      <trkpt lat="56.895233639046" lon="14.846272988457">
        <ele>172</ele>
        <time>2020-03-28T11:03:48Z</time>
      </trkpt>
      <trkpt lat="56.895084776502" lon="14.846071236124">
        <ele>171.2</ele>
        <time>2020-03-28T11:03:57Z</time>
      </trkpt>
      <trkpt lat="56.895058541155" lon="14.846043743492">
        <ele>171</ele>
        <time>2020-03-28T11:03:58Z</time>
      </trkpt>
      <trkpt lat="56.894972710499" lon="14.846073750694">
        <ele>171</ele>
        <time>2020-03-28T11:04:03Z</time>
      </trkpt>
      <trkpt lat="56.894941194555" lon="14.846082551689">
        <ele>171.2</ele>
        <time>2020-03-28T11:04:07Z</time>
      </trkpt>
      <trkpt lat="56.894890651698" lon="14.846080456214">
        <ele>171.2</ele>
        <time>2020-03-28T11:04:10Z</time>
      </trkpt>
      <trkpt lat="56.894704824975" lon="14.84598523783">
        <ele>170.8</ele>
        <time>2020-03-28T11:04:18Z</time>
      </trkpt>
      <trkpt lat="56.894642296001" lon="14.845909381635">
        <ele>170.4</ele>
        <time>2020-03-28T11:04:21Z</time>
      </trkpt>
      <trkpt lat="56.894597452836" lon="14.84588214046">
        <ele>170.2</ele>
        <time>2020-03-28T11:04:23Z</time>
      </trkpt>
      <trkpt lat="56.894554202232" lon="14.845874345293">
        <ele>170.2</ele>
        <time>2020-03-28T11:04:25Z</time>
      </trkpt>
      <trkpt lat="56.894389497897" lon="14.845683573249">
        <ele>169.4</ele>
        <time>2020-03-28T11:04:31Z</time>
      </trkpt>
      <trkpt lat="56.894254130212" lon="14.845398923925">
        <ele>169.4</ele>
        <time>2020-03-28T11:04:37Z</time>
      </trkpt>
      <trkpt lat="56.894133933766" lon="14.845102120846">
        <ele>170.4</ele>
        <time>2020-03-28T11:04:43Z</time>
      </trkpt>
      <trkpt lat="56.894086743669" lon="14.844891316061">
        <ele>170.6</ele>
        <time>2020-03-28T11:04:47Z</time>
      </trkpt>
      <trkpt lat="56.894024717609" lon="14.844579257924">
        <ele>171</ele>
        <time>2020-03-28T11:04:54Z</time>
      </trkpt>
      <trkpt lat="56.89396009316" lon="14.844449254655">
        <ele>171.8</ele>
        <time>2020-03-28T11:04:59Z</time>
      </trkpt>
      <trkpt lat="56.893843836207" lon="14.844273737669">
        <ele>173</ele>
        <time>2020-03-28T11:05:06Z</time>
      </trkpt>
      <trkpt lat="56.893790443504" lon="14.844134430491">
        <ele>174.2</ele>
        <time>2020-03-28T11:05:10Z</time>
      </trkpt>
      <trkpt lat="56.893721292829" lon="14.844017419167">
        <ele>175.4</ele>
        <time>2020-03-28T11:05:14Z</time>
      </trkpt>
      <trkpt lat="56.893651806878" lon="14.843852211918">
        <ele>176.4</ele>
        <time>2020-03-28T11:05:19Z</time>
      </trkpt>
      <trkpt lat="56.893607298989" lon="14.843526323646">
        <ele>177.2</ele>
        <time>2020-03-28T11:05:25Z</time>
      </trkpt>
      <trkpt lat="56.893601431659" lon="14.843163722652">
        <ele>175</ele>
        <time>2020-03-28T11:05:32Z</time>
      </trkpt>
      <trkpt lat="56.893615345613" lon="14.843074120141">
        <ele>173.8</ele>
        <time>2020-03-28T11:05:34Z</time>
      </trkpt>
      <trkpt lat="56.893652728887" lon="14.842869769419">
        <ele>172.6</ele>
        <time>2020-03-28T11:05:38Z</time>
      </trkpt>
      <trkpt lat="56.893673599818" lon="14.842492081005">
        <ele>172</ele>
        <time>2020-03-28T11:05:43Z</time>
      </trkpt>
      <trkpt lat="56.893685083021" lon="14.842352773827">
        <ele>173.6</ele>
        <time>2020-03-28T11:05:46Z</time>
      </trkpt>
      <trkpt lat="56.893703439382" lon="14.842257136348">
        <ele>175</ele>
        <time>2020-03-28T11:05:48Z</time>
      </trkpt>
      <trkpt lat="56.893794299178" lon="14.841957902518">
        <ele>176</ele>
        <time>2020-03-28T11:05:53Z</time>
      </trkpt>
      <trkpt lat="56.893853056297" lon="14.841589853289">
        <ele>174.6</ele>
        <time>2020-03-28T11:05:59Z</time>
      </trkpt>
      <trkpt lat="56.893856576695" lon="14.841542327916">
        <ele>174.2</ele>
        <time>2020-03-28T11:06:00Z</time>
      </trkpt>
      <trkpt lat="56.893855067953" lon="14.841467980463">
        <ele>174</ele>
        <time>2020-03-28T11:06:01Z</time>
      </trkpt>
      <trkpt lat="56.893741493208" lon="14.841162795484">
        <ele>173.4</ele>
        <time>2020-03-28T11:06:08Z</time>
      </trkpt>
      <trkpt lat="56.893676282026" lon="14.84094939231">
        <ele>175.4</ele>
        <time>2020-03-28T11:06:13Z</time>
      </trkpt>
      <trkpt lat="56.893620123296" lon="14.840848474234">
        <ele>176.6</ele>
        <time>2020-03-28T11:06:15Z</time>
      </trkpt>
      <trkpt lat="56.89349908866" lon="14.840579582882">
        <ele>177.4</ele>
        <time>2020-03-28T11:06:21Z</time>
      </trkpt>
      <trkpt lat="56.893328684633" lon="14.840512946777">
        <ele>176.2</ele>
        <time>2020-03-28T11:06:28Z</time>
      </trkpt>
      <trkpt lat="56.893273950826" lon="14.840434659831">
        <ele>175.4</ele>
        <time>2020-03-28T11:06:31Z</time>
      </trkpt>
      <trkpt lat="56.893210080748" lon="14.840280013776">
        <ele>176.4</ele>
        <time>2020-03-28T11:06:36Z</time>
      </trkpt>
      <trkpt lat="56.893171104913" lon="14.840193680206">
        <ele>177.6</ele>
        <time>2020-03-28T11:06:38Z</time>
      </trkpt>
      <trkpt lat="56.893111341966" lon="14.840086475705">
        <ele>177.8</ele>
        <time>2020-03-28T11:06:41Z</time>
      </trkpt>
      <trkpt lat="56.892947056726" lon="14.839903079733">
        <ele>177.8</ele>
        <time>2020-03-28T11:06:48Z</time>
      </trkpt>
      <trkpt lat="56.89277405431" lon="14.839706105083">
        <ele>178.6</ele>
        <time>2020-03-28T11:06:55Z</time>
      </trkpt>
      <trkpt lat="56.892651594751" lon="14.839515416858">
        <ele>179.4</ele>
        <time>2020-03-28T11:07:01Z</time>
      </trkpt>
      <trkpt lat="56.892635585322" lon="14.839411648936">
        <ele>179.8</ele>
        <time>2020-03-28T11:07:03Z</time>
      </trkpt>
      <trkpt lat="56.892481190724" lon="14.839202017617">
        <ele>180</ele>
        <time>2020-03-28T11:07:09Z</time>
      </trkpt>
      <trkpt lat="56.892373986223" lon="14.838914937542">
        <ele>180.8</ele>
        <time>2020-03-28T11:07:16Z</time>
      </trkpt>
      <trkpt lat="56.892340458623" lon="14.838734391416">
        <ele>180.2</ele>
        <time>2020-03-28T11:07:22Z</time>
      </trkpt>
      <trkpt lat="56.892335513302" lon="14.8386787356">
        <ele>180.2</ele>
        <time>2020-03-28T11:07:25Z</time>
      </trkpt>
      <trkpt lat="56.892320425882" lon="14.838615368436">
        <ele>180.2</ele>
        <time>2020-03-28T11:07:27Z</time>
      </trkpt>
      <trkpt lat="56.892290083404" lon="14.838533980187">
        <ele>180.2</ele>
        <time>2020-03-28T11:07:29Z</time>
      </trkpt>
      <trkpt lat="56.892259740926" lon="14.838368521481">
        <ele>180.8</ele>
        <time>2020-03-28T11:07:33Z</time>
      </trkpt>
      <trkpt lat="56.892232248294" lon="14.838293754933">
        <ele>182</ele>
        <time>2020-03-28T11:07:35Z</time>
      </trkpt>
      <trkpt lat="56.892167372388" lon="14.838171379193">
        <ele>182.6</ele>
        <time>2020-03-28T11:07:41Z</time>
      </trkpt>
      <trkpt lat="56.892084726854" lon="14.838070293479">
        <ele>182</ele>
        <time>2020-03-28T11:07:50Z</time>
      </trkpt>
      <trkpt lat="56.892032507617" lon="14.838010362894">
        <ele>182.2</ele>
        <time>2020-03-28T11:07:52Z</time>
      </trkpt>
      <trkpt lat="56.891852380586" lon="14.83786066216">
        <ele>181.2</ele>
        <time>2020-03-28T11:07:59Z</time>
      </trkpt>
      <trkpt lat="56.891772836355" lon="14.837787069078">
        <ele>180.8</ele>
        <time>2020-03-28T11:08:02Z</time>
      </trkpt>
      <trkpt lat="56.891632858625" lon="14.837558159389">
        <ele>180.8</ele>
        <time>2020-03-28T11:08:09Z</time>
      </trkpt>
      <trkpt lat="56.891476955285" lon="14.837398903289">
        <ele>182.4</ele>
        <time>2020-03-28T11:08:15Z</time>
      </trkpt>
      <trkpt lat="56.891405625316" lon="14.837300248326">
        <ele>183.4</ele>
        <time>2020-03-28T11:08:18Z</time>
      </trkpt>
      <trkpt lat="56.891312083312" lon="14.837233025488">
        <ele>183</ele>
        <time>2020-03-28T11:08:24Z</time>
      </trkpt>
      <trkpt lat="56.891165316243" lon="14.83726973821">
        <ele>184.6</ele>
        <time>2020-03-28T11:08:35Z</time>
      </trkpt>
      <trkpt lat="56.891096584663" lon="14.837278790662">
        <ele>185.4</ele>
        <time>2020-03-28T11:08:38Z</time>
      </trkpt>
      <trkpt lat="56.891074456447" lon="14.837262697414">
        <ele>185.8</ele>
        <time>2020-03-28T11:08:39Z</time>
      </trkpt>
      <trkpt lat="56.89101217893" lon="14.837180470975">
        <ele>187.2</ele>
        <time>2020-03-28T11:08:42Z</time>
      </trkpt>
      <trkpt lat="56.89095434382" lon="14.837101597296">
        <ele>187.4</ele>
        <time>2020-03-28T11:08:45Z</time>
      </trkpt>
      <trkpt lat="56.890845043844" lon="14.837007971473">
        <ele>185.8</ele>
        <time>2020-03-28T11:08:50Z</time>
      </trkpt>
      <trkpt lat="56.890655780542" lon="14.836850224115">
        <ele>185.2</ele>
        <time>2020-03-28T11:08:59Z</time>
      </trkpt>
      <trkpt lat="56.890529130033" lon="14.836594911441">
        <ele>185</ele>
        <time>2020-03-28T11:09:07Z</time>
      </trkpt>
      <trkpt lat="56.890391834511" lon="14.836381759724">
        <ele>185</ele>
        <time>2020-03-28T11:09:15Z</time>
      </trkpt>
      <trkpt lat="56.890207181254" lon="14.83633683274">
        <ele>186.8</ele>
        <time>2020-03-28T11:09:23Z</time>
      </trkpt>
      <trkpt lat="56.890177760785" lon="14.836314117791">
        <ele>186.8</ele>
        <time>2020-03-28T11:09:24Z</time>
      </trkpt>
      <trkpt lat="56.890138030579" lon="14.836269106988">
        <ele>187</ele>
        <time>2020-03-28T11:09:26Z</time>
      </trkpt>
      <trkpt lat="56.890121099141" lon="14.836259383984">
        <ele>187.4</ele>
        <time>2020-03-28T11:09:27Z</time>
      </trkpt>
      <trkpt lat="56.890082542401" lon="14.836447138544">
        <ele>187.4</ele>
        <time>2020-03-28T11:09:35Z</time>
      </trkpt>
      <trkpt lat="56.890024288196" lon="14.836375557118">
        <ele>187.6</ele>
        <time>2020-03-28T11:09:38Z</time>
      </trkpt>
      <trkpt lat="56.889846508097" lon="14.836236166121">
        <ele>187.8</ele>
        <time>2020-03-28T11:09:48Z</time>
      </trkpt>
      <trkpt lat="56.889825972442" lon="14.83611135963">
        <ele>188</ele>
        <time>2020-03-28T11:09:55Z</time>
      </trkpt>
      <trkpt lat="56.889833599971" lon="14.836072467614">
        <ele>188.2</ele>
        <time>2020-03-28T11:09:56Z</time>
      </trkpt>
      <trkpt lat="56.88988565157" lon="14.835755799432">
        <ele>188</ele>
        <time>2020-03-28T11:10:04Z</time>
      </trkpt>
      <trkpt lat="56.889914066211" lon="14.835649852216">
        <ele>186.8</ele>
        <time>2020-03-28T11:10:07Z</time>
      </trkpt>
      <trkpt lat="56.889956227168" lon="14.835488249184">
        <ele>185.6</ele>
        <time>2020-03-28T11:10:11Z</time>
      </trkpt>
      <trkpt lat="56.889933344581" lon="14.835338883726">
        <ele>184.4</ele>
        <time>2020-03-28T11:10:15Z</time>
      </trkpt>
      <trkpt lat="56.88980350895" lon="14.835097820282">
        <ele>183.8</ele>
        <time>2020-03-28T11:10:22Z</time>
      </trkpt>
      <trkpt lat="56.889643330841" lon="14.834918447622">
        <ele>183.8</ele>
        <time>2020-03-28T11:10:30Z</time>
      </trkpt>
      <trkpt lat="56.889611311983" lon="14.834877292493">
        <ele>183.4</ele>
        <time>2020-03-28T11:10:33Z</time>
      </trkpt>
      <trkpt lat="56.889597817124" lon="14.834865474014">
        <ele>183.4</ele>
        <time>2020-03-28T11:10:34Z</time>
      </trkpt>
      <trkpt lat="56.889565965904" lon="14.834801184841">
        <ele>183.4</ele>
        <time>2020-03-28T11:10:38Z</time>
      </trkpt>
      <trkpt lat="56.889518608169" lon="14.834622231276">
        <ele>183.6</ele>
        <time>2020-03-28T11:10:42Z</time>
      </trkpt>
      <trkpt lat="56.889465634561" lon="14.834268598915">
        <ele>184</ele>
        <time>2020-03-28T11:10:49Z</time>
      </trkpt>
      <trkpt lat="56.889448619304" lon="14.834007586549">
        <ele>184.4</ele>
        <time>2020-03-28T11:10:55Z</time>
      </trkpt>
      <trkpt lat="56.889457839394" lon="14.833802900551">
        <ele>183.4</ele>
        <time>2020-03-28T11:11:00Z</time>
      </trkpt>
      <trkpt lat="56.889471669529" lon="14.833593604508">
        <ele>182.6</ele>
        <time>2020-03-28T11:11:06Z</time>
      </trkpt>
      <trkpt lat="56.889592787984" lon="14.833399312066">
        <ele>183.4</ele>
        <time>2020-03-28T11:11:16Z</time>
      </trkpt>
      <trkpt lat="56.889641905918" lon="14.833329239382">
        <ele>183.4</ele>
        <time>2020-03-28T11:11:26Z</time>
      </trkpt>
      <trkpt lat="56.889695969173" lon="14.833402161912">
        <ele>183.6</ele>
        <time>2020-03-28T11:11:29Z</time>
      </trkpt>
      <trkpt lat="56.889754474835" lon="14.833422529929">
        <ele>183.8</ele>
        <time>2020-03-28T11:11:32Z</time>
      </trkpt>
      <trkpt lat="56.889830163392" lon="14.833473156605">
        <ele>184.4</ele>
        <time>2020-03-28T11:11:36Z</time>
      </trkpt>
      <trkpt lat="56.889876766756" lon="14.833474330071">
        <ele>185</ele>
        <time>2020-03-28T11:11:39Z</time>
      </trkpt>
      <trkpt lat="56.88986134406" lon="14.833306272976">
        <ele>184.8</ele>
        <time>2020-03-28T11:11:56Z</time>
      </trkpt>
      <trkpt lat="56.889847765382" lon="14.833264447295">
        <ele>185.2</ele>
        <time>2020-03-28T11:11:58Z</time>
      </trkpt>
      <trkpt lat="56.889847262468" lon="14.833228321306">
        <ele>185.4</ele>
        <time>2020-03-28T11:12:00Z</time>
      </trkpt>
      <trkpt lat="56.889826726813" lon="14.833227734573">
        <ele>184.8</ele>
        <time>2020-03-28T11:12:03Z</time>
      </trkpt>
      <trkpt lat="56.889793534489" lon="14.833247096762">
        <ele>184.6</ele>
        <time>2020-03-28T11:12:06Z</time>
      </trkpt>
      <trkpt lat="56.889607623947" lon="14.833301914388">
        <ele>183.8</ele>
        <time>2020-03-28T11:12:13Z</time>
      </trkpt>
      <trkpt lat="56.889447362019" lon="14.833265285485">
        <ele>183.4</ele>
        <time>2020-03-28T11:12:19Z</time>
      </trkpt>
      <trkpt lat="56.889385000683" lon="14.833161685201">
        <ele>182.8</ele>
        <time>2020-03-28T11:12:23Z</time>
      </trkpt>
      <trkpt lat="56.889240580546" lon="14.833161433744">
        <ele>182</ele>
        <time>2020-03-28T11:12:29Z</time>
      </trkpt>
      <trkpt lat="56.889176123735" lon="14.833199236113">
        <ele>180.8</ele>
        <time>2020-03-28T11:12:32Z</time>
      </trkpt>
      <trkpt lat="56.889153324967" lon="14.833215496999">
        <ele>180.6</ele>
        <time>2020-03-28T11:12:33Z</time>
      </trkpt>
      <trkpt lat="56.889077468772" lon="14.833250952436">
        <ele>180.4</ele>
        <time>2020-03-28T11:12:36Z</time>
      </trkpt>
      <trkpt lat="56.888907316202" lon="14.833457901547">
        <ele>181</ele>
        <time>2020-03-28T11:12:43Z</time>
      </trkpt>
      <trkpt lat="56.888719058728" lon="14.83358337859">
        <ele>180.2</ele>
        <time>2020-03-28T11:12:50Z</time>
      </trkpt>
      <trkpt lat="56.888684273843" lon="14.833646578116">
        <ele>179.8</ele>
        <time>2020-03-28T11:12:52Z</time>
      </trkpt>
      <trkpt lat="56.888534237833" lon="14.833839613273">
        <ele>180.4</ele>
        <time>2020-03-28T11:12:58Z</time>
      </trkpt>
      <trkpt lat="56.888365845462" lon="14.834020327037">
        <ele>180</ele>
        <time>2020-03-28T11:13:07Z</time>
      </trkpt>
      <trkpt lat="56.888316392252" lon="14.834109845729">
        <ele>180</ele>
        <time>2020-03-28T11:13:10Z</time>
      </trkpt>
      <trkpt lat="56.888263418644" lon="14.834213613651">
        <ele>180</ele>
        <time>2020-03-28T11:13:13Z</time>
      </trkpt>
      <trkpt lat="56.888203320421" lon="14.834268515096">
        <ele>179.8</ele>
        <time>2020-03-28T11:13:15Z</time>
      </trkpt>
      <trkpt lat="56.888012716015" lon="14.834317046297">
        <ele>180.2</ele>
        <time>2020-03-28T11:13:24Z</time>
      </trkpt>
      <trkpt lat="56.88798128389" lon="14.834318555039">
        <ele>180</ele>
        <time>2020-03-28T11:13:27Z</time>
      </trkpt>
      <trkpt lat="56.88789411213" lon="14.834347221137">
        <ele>179.6</ele>
        <time>2020-03-28T11:13:31Z</time>
      </trkpt>
      <trkpt lat="56.887876677778" lon="14.834328194224">
        <ele>179.6</ele>
        <time>2020-03-28T11:13:32Z</time>
      </trkpt>
      <trkpt lat="56.887807191827" lon="14.834268598915">
        <ele>179.8</ele>
        <time>2020-03-28T11:13:35Z</time>
      </trkpt>
      <trkpt lat="56.887687833571" lon="14.834275304435">
        <ele>178.4</ele>
        <time>2020-03-28T11:13:40Z</time>
      </trkpt>
      <trkpt lat="56.887562859442" lon="14.834287039095">
        <ele>178.8</ele>
        <time>2020-03-28T11:13:47Z</time>
      </trkpt>
      <trkpt lat="56.887462025185" lon="14.834159550396">
        <ele>178</ele>
        <time>2020-03-28T11:13:59Z</time>
      </trkpt>
      <trkpt lat="56.887414751269" lon="14.833996438622">
        <ele>179</ele>
        <time>2020-03-28T11:14:09Z</time>
      </trkpt>
      <trkpt lat="56.887339817083" lon="14.833873476149">
        <ele>179.2</ele>
        <time>2020-03-28T11:14:18Z</time>
      </trkpt>
      <trkpt lat="56.887290866787" lon="14.833804996026">
        <ele>179.6</ele>
        <time>2020-03-28T11:14:21Z</time>
      </trkpt>
      <trkpt lat="56.887257506825" lon="14.833760069042">
        <ele>180.8</ele>
        <time>2020-03-28T11:14:25Z</time>
      </trkpt>
      <trkpt lat="56.887252561504" lon="14.833757805929">
        <ele>181</ele>
        <time>2020-03-28T11:14:26Z</time>
      </trkpt>
      <trkpt lat="56.887297739945" lon="14.83372838546">
        <ele>181.2</ele>
        <time>2020-03-28T11:14:39Z</time>
      </trkpt>
      <trkpt lat="56.887322131274" lon="14.833677674965">
        <ele>181.4</ele>
        <time>2020-03-28T11:14:42Z</time>
      </trkpt>
      <trkpt lat="56.887320119618" lon="14.833623527891">
        <ele>181.2</ele>
        <time>2020-03-28T11:14:44Z</time>
      </trkpt>
      <trkpt lat="56.88734845044" lon="14.83350207416">
        <ele>181</ele>
        <time>2020-03-28T11:14:48Z</time>
      </trkpt>
      <trkpt lat="56.8873518032" lon="14.83348531036">
        <ele>181.2</ele>
        <time>2020-03-28T11:14:49Z</time>
      </trkpt>
      <trkpt lat="56.887357502892" lon="14.833457147176">
        <ele>181.4</ele>
        <time>2020-03-28T11:14:51Z</time>
      </trkpt>
      <trkpt lat="56.887519273562" lon="14.833518502684">
        <ele>179.8</ele>
        <time>2020-03-28T11:15:02Z</time>
      </trkpt>
      <trkpt lat="56.887546347099" lon="14.833515569019">
        <ele>179.6</ele>
        <time>2020-03-28T11:15:03Z</time>
      </trkpt>
      <trkpt lat="56.887572833903" lon="14.833498805219">
        <ele>178.6</ele>
        <time>2020-03-28T11:15:11Z</time>
      </trkpt>
      <trkpt lat="56.887640308198" lon="14.833496039192">
        <ele>179.2</ele>
        <time>2020-03-28T11:15:18Z</time>
      </trkpt>
      <trkpt lat="56.887669393391" lon="14.833499140495">
        <ele>179.8</ele>
        <time>2020-03-28T11:15:20Z</time>
      </trkpt>
      <trkpt lat="56.887670483038" lon="14.833501738884">
        <ele>180</ele>
        <time>2020-03-28T11:15:21Z</time>
      </trkpt>
      <trkpt lat="56.88767282997" lon="14.83363786094">
        <ele>179.8</ele>
        <time>2020-03-28T11:15:39Z</time>
      </trkpt>
      <trkpt lat="56.88768540282" lon="14.833895604365">
        <ele>178.8</ele>
        <time>2020-03-28T11:15:46Z</time>
      </trkpt>
      <trkpt lat="56.887693281806" lon="14.834216714954">
        <ele>178.2</ele>
        <time>2020-03-28T11:15:54Z</time>
      </trkpt>
      <trkpt lat="56.887658999835" lon="14.834544195787">
        <ele>179.4</ele>
        <time>2020-03-28T11:16:01Z</time>
      </trkpt>
      <trkpt lat="56.88768288825" lon="14.8348984987">
        <ele>179.4</ele>
        <time>2020-03-28T11:16:08Z</time>
      </trkpt>
      <trkpt lat="56.887692275978" lon="14.834989609953">
        <ele>180</ele>
        <time>2020-03-28T11:16:10Z</time>
      </trkpt>
      <trkpt lat="56.887702920991" lon="14.83511223715">
        <ele>181.4</ele>
        <time>2020-03-28T11:16:13Z</time>
      </trkpt>
      <trkpt lat="56.887701915163" lon="14.835147776406">
        <ele>181.8</ele>
        <time>2020-03-28T11:16:14Z</time>
      </trkpt>
      <trkpt lat="56.887702082801" lon="14.8352337747">
        <ele>182.4</ele>
        <time>2020-03-28T11:16:16Z</time>
      </trkpt>
      <trkpt lat="56.887567050392" lon="14.835406022745">
        <ele>181.4</ele>
        <time>2020-03-28T11:16:23Z</time>
      </trkpt>
      <trkpt lat="56.887515920802" lon="14.835458074344">
        <ele>181.2</ele>
        <time>2020-03-28T11:16:26Z</time>
      </trkpt>
      <trkpt lat="56.887312072994" lon="14.835500486758">
        <ele>180.8</ele>
        <time>2020-03-28T11:16:33Z</time>
      </trkpt>
      <trkpt lat="56.887289190407" lon="14.835501911681">
        <ele>180.6</ele>
        <time>2020-03-28T11:16:34Z</time>
      </trkpt>
      <trkpt lat="56.887261697775" lon="14.835508198106">
        <ele>180.4</ele>
        <time>2020-03-28T11:16:35Z</time>
      </trkpt>
      <trkpt lat="56.887179387517" lon="14.835542982991">
        <ele>180</ele>
        <time>2020-03-28T11:16:38Z</time>
      </trkpt>
      <trkpt lat="56.886992638785" lon="14.835533511444">
        <ele>180.4</ele>
        <time>2020-03-28T11:16:44Z</time>
      </trkpt>
      <trkpt lat="56.886803207845" lon="14.835447848426">
        <ele>181</ele>
        <time>2020-03-28T11:16:50Z</time>
      </trkpt>
      <trkpt lat="56.886645544306" lon="14.835364364702">
        <ele>181.4</ele>
        <time>2020-03-28T11:16:55Z</time>
      </trkpt>
      <trkpt lat="56.886496933219" lon="14.835526470648">
        <ele>181.6</ele>
        <time>2020-03-28T11:17:03Z</time>
      </trkpt>
      <trkpt lat="56.886518474702" lon="14.835677763943">
        <ele>181.4</ele>
        <time>2020-03-28T11:17:06Z</time>
      </trkpt>
      <trkpt lat="56.886609334498" lon="14.835992504288">
        <ele>181.6</ele>
        <time>2020-03-28T11:17:12Z</time>
      </trkpt>
      <trkpt lat="56.886637246225" lon="14.836230214972">
        <ele>182.8</ele>
        <time>2020-03-28T11:17:16Z</time>
      </trkpt>
      <trkpt lat="56.886676976431" lon="14.836584182609">
        <ele>182.2</ele>
        <time>2020-03-28T11:17:22Z</time>
      </trkpt>
      <trkpt lat="56.886695835706" lon="14.83664361028">
        <ele>181.8</ele>
        <time>2020-03-28T11:17:23Z</time>
      </trkpt>
      <trkpt lat="56.886752832626" lon="14.836799848896">
        <ele>180.6</ele>
        <time>2020-03-28T11:17:26Z</time>
      </trkpt>
      <trkpt lat="56.8868488892" lon="14.837119534562">
        <ele>180.2</ele>
        <time>2020-03-28T11:17:32Z</time>
      </trkpt>
      <trkpt lat="56.886873951081" lon="14.837207293055">
        <ele>180.4</ele>
        <time>2020-03-28T11:17:34Z</time>
      </trkpt>
      <trkpt lat="56.886843440965" lon="14.837480040081">
        <ele>182</ele>
        <time>2020-03-28T11:17:41Z</time>
      </trkpt>
      <trkpt lat="56.886780073801" lon="14.837683971708">
        <ele>183</ele>
        <time>2020-03-28T11:17:46Z</time>
      </trkpt>
      <trkpt lat="56.886712850963" lon="14.837792684951">
        <ele>184.2</ele>
        <time>2020-03-28T11:17:50Z</time>
      </trkpt>
      <trkpt lat="56.886559043098" lon="14.837968621032">
        <ele>185.2</ele>
        <time>2020-03-28T11:17:56Z</time>
      </trkpt>
      <trkpt lat="56.886405821966" lon="14.83803668206">
        <ele>185</ele>
        <time>2020-03-28T11:18:02Z</time>
      </trkpt>
      <trkpt lat="56.886362152267" lon="14.838084291252">
        <ele>185</ele>
        <time>2020-03-28T11:18:05Z</time>
      </trkpt>
      <trkpt lat="56.886430548571" lon="14.838412442637">
        <ele>184.8</ele>
        <time>2020-03-28T11:18:13Z</time>
      </trkpt>
      <trkpt lat="56.886458125022" lon="14.838515372369">
        <ele>185.4</ele>
        <time>2020-03-28T11:18:15Z</time>
      </trkpt>
      <trkpt lat="56.886519899625" lon="14.838641184688">
        <ele>184.6</ele>
        <time>2020-03-28T11:18:19Z</time>
      </trkpt>
      <trkpt lat="56.886536579606" lon="14.838676053392">
        <ele>184.2</ele>
        <time>2020-03-28T11:18:20Z</time>
      </trkpt>
      <trkpt lat="56.886693991688" lon="14.838887528729">
        <ele>184.2</ele>
        <time>2020-03-28T11:18:26Z</time>
      </trkpt>
      <trkpt lat="56.886843105689" lon="14.839075115651">
        <ele>184.8</ele>
        <time>2020-03-28T11:18:31Z</time>
      </trkpt>
      <trkpt lat="56.886861629688" lon="14.839113504753">
        <ele>184.8</ele>
        <time>2020-03-28T11:18:32Z</time>
      </trkpt>
      <trkpt lat="56.886869927769" lon="14.839192043156">
        <ele>184.6</ele>
        <time>2020-03-28T11:18:34Z</time>
      </trkpt>
      <trkpt lat="56.886871687968" lon="14.839330093049">
        <ele>183.8</ele>
        <time>2020-03-28T11:18:37Z</time>
      </trkpt>
      <trkpt lat="56.886731877876" lon="14.83942723927">
        <ele>183.2</ele>
        <time>2020-03-28T11:18:43Z</time>
      </trkpt>
      <trkpt lat="56.886638335872" lon="14.839473004444">
        <ele>182</ele>
        <time>2020-03-28T11:18:47Z</time>
      </trkpt>
      <trkpt lat="56.886514032295" lon="14.839463868173">
        <ele>180.8</ele>
        <time>2020-03-28T11:18:52Z</time>
      </trkpt>
      <trkpt lat="56.886438008462" lon="14.839473423539">
        <ele>179.4</ele>
        <time>2020-03-28T11:18:56Z</time>
      </trkpt>
      <trkpt lat="56.886348908865" lon="14.839432603686">
        <ele>179</ele>
        <time>2020-03-28T11:19:00Z</time>
      </trkpt>
      <trkpt lat="56.886150090197" lon="14.839391448557">
        <ele>179.2</ele>
        <time>2020-03-28T11:19:06Z</time>
      </trkpt>
      <trkpt lat="56.886125363592" lon="14.839367141047">
        <ele>179.2</ele>
        <time>2020-03-28T11:19:07Z</time>
      </trkpt>
      <trkpt lat="56.88595370228" lon="14.839204113092">
        <ele>179</ele>
        <time>2020-03-28T11:19:15Z</time>
      </trkpt>
      <trkpt lat="56.885879438646" lon="14.839153234959">
        <ele>178.6</ele>
        <time>2020-03-28T11:19:20Z</time>
      </trkpt>
      <trkpt lat="56.885705095126" lon="14.838995319963">
        <ele>178.8</ele>
        <time>2020-03-28T11:19:27Z</time>
      </trkpt>
      <trkpt lat="56.885622449592" lon="14.838967743512">
        <ele>179</ele>
        <time>2020-03-28T11:19:30Z</time>
      </trkpt>
      <trkpt lat="56.885464366958" lon="14.839077630221">
        <ele>178.4</ele>
        <time>2020-03-28T11:19:37Z</time>
      </trkpt>
      <trkpt lat="56.885430336444" lon="14.83908861051">
        <ele>178</ele>
        <time>2020-03-28T11:19:40Z</time>
      </trkpt>
      <trkpt lat="56.885389935686" lon="14.839104619939">
        <ele>177.8</ele>
        <time>2020-03-28T11:19:43Z</time>
      </trkpt>
      <trkpt lat="56.88535858738" lon="14.839222385634">
        <ele>178</ele>
        <time>2020-03-28T11:19:47Z</time>
      </trkpt>
      <trkpt lat="56.885188770086" lon="14.839363453011">
        <ele>177.8</ele>
        <time>2020-03-28T11:19:54Z</time>
      </trkpt>
      <trkpt lat="56.885093384064" lon="14.839185169998">
        <ele>179.6</ele>
        <time>2020-03-28T11:20:00Z</time>
      </trkpt>
      <trkpt lat="56.885044769044" lon="14.839065057371">
        <ele>179.4</ele>
        <time>2020-03-28T11:20:05Z</time>
      </trkpt>
      <trkpt lat="56.885005541752" lon="14.838982076561">
        <ele>179.2</ele>
        <time>2020-03-28T11:20:08Z</time>
      </trkpt>
      <trkpt lat="56.884987017753" lon="14.838961540906">
        <ele>178.8</ele>
        <time>2020-03-28T11:20:11Z</time>
      </trkpt>
      <trkpt lat="56.884982659165" lon="14.838882248132">
        <ele>178.4</ele>
        <time>2020-03-28T11:20:16Z</time>
      </trkpt>
      <trkpt lat="56.884972433247" lon="14.838748053913">
        <ele>177.8</ele>
        <time>2020-03-28T11:20:21Z</time>
      </trkpt>
      <trkpt lat="56.884962626424" lon="14.838527945219">
        <ele>179.4</ele>
        <time>2020-03-28T11:20:27Z</time>
      </trkpt>
      <trkpt lat="56.884960950044" lon="14.838450664101">
        <ele>180.6</ele>
        <time>2020-03-28T11:20:29Z</time>
      </trkpt>
      <trkpt lat="56.884962374967" lon="14.838336837899">
        <ele>182.2</ele>
        <time>2020-03-28T11:20:31Z</time>
      </trkpt>
      <trkpt lat="56.884977294749" lon="14.838190741382">
        <ele>183.2</ele>
        <time>2020-03-28T11:20:34Z</time>
      </trkpt>
      <trkpt lat="56.885069160373" lon="14.837893854484">
        <ele>183</ele>
        <time>2020-03-28T11:20:40Z</time>
      </trkpt>
      <trkpt lat="56.885110064045" lon="14.837758151523">
        <ele>181.8</ele>
        <time>2020-03-28T11:20:44Z</time>
      </trkpt>
      <trkpt lat="56.885124145637" lon="14.837702663345">
        <ele>180.4</ele>
        <time>2020-03-28T11:20:46Z</time>
      </trkpt>
      <trkpt lat="56.885130515881" lon="14.837675086894">
        <ele>179.8</ele>
        <time>2020-03-28T11:20:47Z</time>
      </trkpt>
      <trkpt lat="56.885123726542" lon="14.837566708927">
        <ele>179.4</ele>
        <time>2020-03-28T11:20:50Z</time>
      </trkpt>
      <trkpt lat="56.885126324931" lon="14.837510634016">
        <ele>179.6</ele>
        <time>2020-03-28T11:20:51Z</time>
      </trkpt>
      <trkpt lat="56.885151302993" lon="14.837355317409">
        <ele>179.8</ele>
        <time>2020-03-28T11:20:54Z</time>
      </trkpt>
      <trkpt lat="56.88507527916" lon="14.837088772989">
        <ele>179</ele>
        <time>2020-03-28T11:20:58Z</time>
      </trkpt>
      <trkpt lat="56.884944018606" lon="14.83681963018">
        <ele>178.2</ele>
        <time>2020-03-28T11:21:03Z</time>
      </trkpt>
      <trkpt lat="56.884835305363" lon="14.836624918643">
        <ele>178</ele>
        <time>2020-03-28T11:21:07Z</time>
      </trkpt>
      <trkpt lat="56.884665571888" lon="14.836421825206">
        <ele>177.8</ele>
        <time>2020-03-28T11:21:12Z</time>
      </trkpt>
      <trkpt lat="56.884521151751" lon="14.836202051788">
        <ele>178</ele>
        <time>2020-03-28T11:21:17Z</time>
      </trkpt>
      <trkpt lat="56.884364158764" lon="14.836003987491">
        <ele>179</ele>
        <time>2020-03-28T11:21:22Z</time>
      </trkpt>
      <trkpt lat="56.884205070302" lon="14.835803408624">
        <ele>177.8</ele>
        <time>2020-03-28T11:21:27Z</time>
      </trkpt>
      <trkpt lat="56.884056375396" lon="14.835587239423">
        <ele>177</ele>
        <time>2020-03-28T11:21:32Z</time>
      </trkpt>
      <trkpt lat="56.884029720954" lon="14.835548515045">
        <ele>176.8</ele>
        <time>2020-03-28T11:21:33Z</time>
      </trkpt>
      <trkpt lat="56.883980435382" lon="14.835469976642">
        <ele>175.4</ele>
        <time>2020-03-28T11:21:35Z</time>
      </trkpt>
      <trkpt lat="56.883952691293" lon="14.835432006635">
        <ele>174.2</ele>
        <time>2020-03-28T11:21:36Z</time>
      </trkpt>
      <trkpt lat="56.883895610554" lon="14.83535782682">
        <ele>173</ele>
        <time>2020-03-28T11:21:38Z</time>
      </trkpt>
      <trkpt lat="56.883735348626" lon="14.835156912677">
        <ele>173.6</ele>
        <time>2020-03-28T11:21:44Z</time>
      </trkpt>
      <trkpt lat="56.883542900202" lon="14.835007295762">
        <ele>173.4</ele>
        <time>2020-03-28T11:21:50Z</time>
      </trkpt>
      <trkpt lat="56.883333436521" lon="14.834927751531">
        <ele>173.8</ele>
        <time>2020-03-28T11:21:56Z</time>
      </trkpt>
      <trkpt lat="56.883257664145" lon="14.834905958591">
        <ele>174.2</ele>
        <time>2020-03-28T11:21:58Z</time>
      </trkpt>
      <trkpt lat="56.883070077223" lon="14.83475935916">
        <ele>174.4</ele>
        <time>2020-03-28T11:22:04Z</time>
      </trkpt>
      <trkpt lat="56.882908893286" lon="14.834534640421">
        <ele>173.4</ele>
        <time>2020-03-28T11:22:10Z</time>
      </trkpt>
      <trkpt lat="56.882778135646" lon="14.834442188064">
        <ele>173.4</ele>
        <time>2020-03-28T11:22:15Z</time>
      </trkpt>
      <trkpt lat="56.882603708307" lon="14.834593481359">
        <ele>174.2</ele>
        <time>2020-03-28T11:22:23Z</time>
      </trkpt>
      <trkpt lat="56.882562804635" lon="14.83461602867">
        <ele>174.2</ele>
        <time>2020-03-28T11:22:25Z</time>
      </trkpt>
      <trkpt lat="56.882479069454" lon="14.834708313389">
        <ele>174.2</ele>
        <time>2020-03-28T11:22:29Z</time>
      </trkpt>
      <trkpt lat="56.88245174446" lon="14.834720718601">
        <ele>174</ele>
        <time>2020-03-28T11:22:31Z</time>
      </trkpt>
      <trkpt lat="56.882431711719" lon="14.834773524571">
        <ele>173.4</ele>
        <time>2020-03-28T11:22:34Z</time>
      </trkpt>
      <trkpt lat="56.882405308734" lon="14.834848794033">
        <ele>173.2</ele>
        <time>2020-03-28T11:22:39Z</time>
      </trkpt>
      <trkpt lat="56.882396172463" lon="14.834992124523">
        <ele>173.2</ele>
        <time>2020-03-28T11:22:42Z</time>
      </trkpt>
      <trkpt lat="56.882391059504" lon="14.835117685385">
        <ele>173.2</ele>
        <time>2020-03-28T11:22:45Z</time>
      </trkpt>
      <trkpt lat="56.882389215486" lon="14.835198905996">
        <ele>173.4</ele>
        <time>2020-03-28T11:22:47Z</time>
      </trkpt>
      <trkpt lat="56.882411762797" lon="14.83523964203">
        <ele>173.8</ele>
        <time>2020-03-28T11:22:49Z</time>
      </trkpt>
      <trkpt lat="56.882406985114" lon="14.835236792184">
        <ele>174.4</ele>
        <time>2020-03-28T11:22:51Z</time>
      </trkpt>
      <trkpt lat="56.88236121994" lon="14.835116931014">
        <ele>174.4</ele>
        <time>2020-03-28T11:22:56Z</time>
      </trkpt>
      <trkpt lat="56.882375720627" lon="14.834915849233">
        <ele>173.4</ele>
        <time>2020-03-28T11:23:01Z</time>
      </trkpt>
      <trkpt lat="56.882518212927" lon="14.834709654493">
        <ele>174.4</ele>
        <time>2020-03-28T11:23:09Z</time>
      </trkpt>
      <trkpt lat="56.882690125696" lon="14.834576549921">
        <ele>175.4</ele>
        <time>2020-03-28T11:23:16Z</time>
      </trkpt>
      <trkpt lat="56.882834462014" lon="14.834400781478">
        <ele>174.2</ele>
        <time>2020-03-28T11:23:21Z</time>
      </trkpt>
      <trkpt lat="56.882992293191" lon="14.834149659754">
        <ele>173.2</ele>
        <time>2020-03-28T11:23:27Z</time>
      </trkpt>
      <trkpt lat="56.883016265425" lon="14.834107666435">
        <ele>173</ele>
        <time>2020-03-28T11:23:28Z</time>
      </trkpt>
      <trkpt lat="56.883123721383" lon="14.833847324621">
        <ele>172.4</ele>
        <time>2020-03-28T11:23:33Z</time>
      </trkpt>
      <trkpt lat="56.883120368623" lon="14.83353811633">
        <ele>171.8</ele>
        <time>2020-03-28T11:23:37Z</time>
      </trkpt>
      <trkpt lat="56.883065802454" lon="14.833169983282">
        <ele>171</ele>
        <time>2020-03-28T11:23:42Z</time>
      </trkpt>
      <trkpt lat="56.883050798853" lon="14.833039058004">
        <ele>170.8</ele>
        <time>2020-03-28T11:23:44Z</time>
      </trkpt>
      <trkpt lat="56.883024395868" lon="14.832881226827">
        <ele>171.4</ele>
        <time>2020-03-28T11:23:49Z</time>
      </trkpt>
      <trkpt lat="56.883003692575" lon="14.832803442795">
        <ele>172</ele>
        <time>2020-03-28T11:23:51Z</time>
      </trkpt>
      <trkpt lat="56.882990532992" lon="14.832453666108">
        <ele>172.2</ele>
        <time>2020-03-28T11:23:59Z</time>
      </trkpt>
      <trkpt lat="56.883063036427" lon="14.832197515244">
        <ele>171.6</ele>
        <time>2020-03-28T11:24:07Z</time>
      </trkpt>
      <trkpt lat="56.88307451963" lon="14.832144038722">
        <ele>171</ele>
        <time>2020-03-28T11:24:09Z</time>
      </trkpt>
      <trkpt lat="56.883079716408" lon="14.832126185275">
        <ele>170.8</ele>
        <time>2020-03-28T11:24:10Z</time>
      </trkpt>
      <trkpt lat="56.883100754977" lon="14.832116126995">
        <ele>170.4</ele>
        <time>2020-03-28T11:24:13Z</time>
      </trkpt>
      <trkpt lat="56.883173509869" lon="14.832038175325">
        <ele>170.4</ele>
        <time>2020-03-28T11:24:17Z</time>
      </trkpt>
      <trkpt lat="56.883365036284" lon="14.831976149265">
        <ele>171.8</ele>
        <time>2020-03-28T11:24:24Z</time>
      </trkpt>
      <trkpt lat="56.883387835052" lon="14.831955026877">
        <ele>172</ele>
        <time>2020-03-28T11:24:25Z</time>
      </trkpt>
      <trkpt lat="56.883428654905" lon="14.831923091838">
        <ele>173</ele>
        <time>2020-03-28T11:24:27Z</time>
      </trkpt>
      <trkpt lat="56.88351708395" lon="14.832177231046">
        <ele>172.4</ele>
        <time>2020-03-28T11:24:35Z</time>
      </trkpt>
      <trkpt lat="56.88355228793" lon="14.832180332349">
        <ele>172</ele>
        <time>2020-03-28T11:24:36Z</time>
      </trkpt>
      <trkpt lat="56.88371070584" lon="14.832236742536">
        <ele>171</ele>
        <time>2020-03-28T11:24:41Z</time>
      </trkpt>
      <trkpt lat="56.88385738909" lon="14.832048149786">
        <ele>170.2</ele>
        <time>2020-03-28T11:24:47Z</time>
      </trkpt>
      <trkpt lat="56.883880606953" lon="14.831999115671">
        <ele>170</ele>
        <time>2020-03-28T11:24:48Z</time>
      </trkpt>
      <trkpt lat="56.884013376249" lon="14.831707760827">
        <ele>170.8</ele>
        <time>2020-03-28T11:24:54Z</time>
      </trkpt>
      <trkpt lat="56.884033660447" lon="14.831629138605">
        <ele>171.2</ele>
        <time>2020-03-28T11:24:55Z</time>
      </trkpt>
      <trkpt lat="56.88418679776" lon="14.831465440098">
        <ele>170.2</ele>
        <time>2020-03-28T11:25:01Z</time>
      </trkpt>
      <trkpt lat="56.884204818845" lon="14.831432080136">
        <ele>170.2</ele>
        <time>2020-03-28T11:25:02Z</time>
      </trkpt>
      <trkpt lat="56.884323003635" lon="14.83116687682">
        <ele>169.4</ele>
        <time>2020-03-28T11:25:08Z</time>
      </trkpt>
      <trkpt lat="56.884397937821" lon="14.830807963862">
        <ele>169.2</ele>
        <time>2020-03-28T11:25:13Z</time>
      </trkpt>
      <trkpt lat="56.884521319389" lon="14.830538653415">
        <ele>169.6</ele>
        <time>2020-03-28T11:25:20Z</time>
      </trkpt>
      <trkpt lat="56.884584686553" lon="14.830467574903">
        <ele>170</ele>
        <time>2020-03-28T11:25:23Z</time>
      </trkpt>
      <trkpt lat="56.884742182454" lon="14.830264230009">
        <ele>169.8</ele>
        <time>2020-03-28T11:25:29Z</time>
      </trkpt>
      <trkpt lat="56.884920297829" lon="14.830175884783">
        <ele>168.4</ele>
        <time>2020-03-28T11:25:36Z</time>
      </trkpt>
      <trkpt lat="56.885115344642" lon="14.830136406034">
        <ele>168.6</ele>
        <time>2020-03-28T11:25:43Z</time>
      </trkpt>
      <trkpt lat="56.885317013156" lon="14.830083767702">
        <ele>168.4</ele>
        <time>2020-03-28T11:25:50Z</time>
      </trkpt>
      <trkpt lat="56.885528237036" lon="14.830044205134">
        <ele>168.6</ele>
        <time>2020-03-28T11:25:56Z</time>
      </trkpt>
      <trkpt lat="56.885709872809" lon="14.829988297861">
        <ele>168.8</ele>
        <time>2020-03-28T11:26:02Z</time>
      </trkpt>
      <trkpt lat="56.885863513036" lon="14.829987459671">
        <ele>168.4</ele>
        <time>2020-03-28T11:26:09Z</time>
      </trkpt>
      <trkpt lat="56.885898717016" lon="14.830042444935">
        <ele>168.8</ele>
        <time>2020-03-28T11:26:13Z</time>
      </trkpt>
      <trkpt lat="56.885926796381" lon="14.830139172061">
        <ele>169.2</ele>
        <time>2020-03-28T11:26:17Z</time>
      </trkpt>
      <trkpt lat="56.885977590695" lon="14.830245454553">
        <ele>169.2</ele>
        <time>2020-03-28T11:26:21Z</time>
      </trkpt>
      <trkpt lat="56.886006592069" lon="14.830299182532">
        <ele>169.4</ele>
        <time>2020-03-28T11:26:24Z</time>
      </trkpt>
      <trkpt lat="56.886046322275" lon="14.830443351212">
        <ele>170.2</ele>
        <time>2020-03-28T11:26:30Z</time>
      </trkpt>
      <trkpt lat="56.886049423578" lon="14.830466066161">
        <ele>170.6</ele>
        <time>2020-03-28T11:26:31Z</time>
      </trkpt>
      <trkpt lat="56.886120418271" lon="14.830622388596">
        <ele>170.2</ele>
        <time>2020-03-28T11:26:42Z</time>
      </trkpt>
      <trkpt lat="56.886145815428" lon="14.830655497101">
        <ele>170.4</ele>
        <time>2020-03-28T11:26:44Z</time>
      </trkpt>
      <trkpt lat="56.886254863947" lon="14.8307159306">
        <ele>170.8</ele>
        <time>2020-03-28T11:26:51Z</time>
      </trkpt>
      <trkpt lat="56.886295348524" lon="14.830775693547">
        <ele>170.4</ele>
        <time>2020-03-28T11:26:55Z</time>
      </trkpt>
      <trkpt lat="56.886318901663" lon="14.830795474831">
        <ele>170.8</ele>
        <time>2020-03-28T11:26:57Z</time>
      </trkpt>
      <trkpt lat="56.886338515309" lon="14.830798995229">
        <ele>171.4</ele>
        <time>2020-03-28T11:26:59Z</time>
      </trkpt>
      <trkpt lat="56.886368271054" lon="14.830835121218">
        <ele>171.6</ele>
        <time>2020-03-28T11:27:02Z</time>
      </trkpt>
      <trkpt lat="56.886377155868" lon="14.830851046828">
        <ele>171.4</ele>
        <time>2020-03-28T11:27:04Z</time>
      </trkpt>
      <trkpt lat="56.886381598275" lon="14.831060761966">
        <ele>171.2</ele>
        <time>2020-03-28T11:27:13Z</time>
      </trkpt>
      <trkpt lat="56.886371623814" lon="14.831106443321">
        <ele>171.2</ele>
        <time>2020-03-28T11:27:15Z</time>
      </trkpt>
      <trkpt lat="56.886375730945" lon="14.831163272603">
        <ele>171.2</ele>
        <time>2020-03-28T11:27:17Z</time>
      </trkpt>
      <trkpt lat="56.886362236086" lon="14.831241978644">
        <ele>170.4</ele>
        <time>2020-03-28T11:27:22Z</time>
      </trkpt>
      <trkpt lat="56.88635603348" lon="14.83139234993">
        <ele>170</ele>
        <time>2020-03-28T11:27:28Z</time>
      </trkpt>
      <trkpt lat="56.886337928576" lon="14.831515396222">
        <ele>169.6</ele>
        <time>2020-03-28T11:27:35Z</time>
      </trkpt>
      <trkpt lat="56.886326361554" lon="14.831459572768">
        <ele>169.8</ele>
        <time>2020-03-28T11:27:38Z</time>
      </trkpt>
      <trkpt lat="56.886306915546" lon="14.831419255829">
        <ele>170</ele>
        <time>2020-03-28T11:27:40Z</time>
      </trkpt>
      <trkpt lat="56.886281853665" lon="14.831411209205">
        <ele>170.4</ele>
        <time>2020-03-28T11:27:42Z</time>
      </trkpt>
      <trkpt lat="56.886225443478" lon="14.831430822851">
        <ele>170.6</ele>
        <time>2020-03-28T11:27:46Z</time>
      </trkpt>
      <trkpt lat="56.886203818176" lon="14.831423446779">
        <ele>170.6</ele>
        <time>2020-03-28T11:27:48Z</time>
      </trkpt>
      <trkpt lat="56.886153694414" lon="14.831408526997">
        <ele>170.6</ele>
        <time>2020-03-28T11:27:52Z</time>
      </trkpt>
      <trkpt lat="56.886141289202" lon="14.831396037966">
        <ele>170.6</ele>
        <time>2020-03-28T11:27:53Z</time>
      </trkpt>
      <trkpt lat="56.886092087449" lon="14.831404252228">
        <ele>170.8</ele>
        <time>2020-03-28T11:27:57Z</time>
      </trkpt>
      <trkpt lat="56.886054955632" lon="14.831388578075">
        <ele>170.6</ele>
        <time>2020-03-28T11:28:00Z</time>
      </trkpt>
      <trkpt lat="56.88604003585" lon="14.831339627779">
        <ele>170.4</ele>
        <time>2020-03-28T11:28:04Z</time>
      </trkpt>
      <trkpt lat="56.886119244805" lon="14.831384303306">
        <ele>170.2</ele>
        <time>2020-03-28T11:28:14Z</time>
      </trkpt>
      <trkpt lat="56.886148078541" lon="14.831382962202">
        <ele>170.4</ele>
        <time>2020-03-28T11:28:17Z</time>
      </trkpt>
      <trkpt lat="56.886181354684" lon="14.831367707144">
        <ele>171</ele>
        <time>2020-03-28T11:28:21Z</time>
      </trkpt>
      <trkpt lat="56.886206500384" lon="14.831356140122">
        <ele>170.4</ele>
        <time>2020-03-28T11:28:24Z</time>
      </trkpt>
      <trkpt lat="56.886228963876" lon="14.831351110982">
        <ele>170.2</ele>
        <time>2020-03-28T11:28:26Z</time>
      </trkpt>
      <trkpt lat="56.886302640777" lon="14.831338957227">
        <ele>170.6</ele>
        <time>2020-03-28T11:28:31Z</time>
      </trkpt>
      <trkpt lat="56.886455526633" lon="14.831307944197">
        <ele>170.2</ele>
        <time>2020-03-28T11:28:38Z</time>
      </trkpt>
      <trkpt lat="56.886505398938" lon="14.831258490987">
        <ele>170</ele>
        <time>2020-03-28T11:28:41Z</time>
      </trkpt>
      <trkpt lat="56.886529706448" lon="14.831256982245">
        <ele>170.2</ele>
        <time>2020-03-28T11:28:43Z</time>
      </trkpt>
      <trkpt lat="56.886569520473" lon="14.831255641141">
        <ele>170.2</ele>
        <time>2020-03-28T11:28:45Z</time>
      </trkpt>
      <trkpt lat="56.886618638407" lon="14.831269555095">
        <ele>170</ele>
        <time>2020-03-28T11:28:47Z</time>
      </trkpt>
      <trkpt lat="56.88673070441" lon="14.83129847265">
        <ele>170</ele>
        <time>2020-03-28T11:28:53Z</time>
      </trkpt>
      <trkpt lat="56.886793317203" lon="14.831322696341">
        <ele>170.6</ele>
        <time>2020-03-28T11:28:57Z</time>
      </trkpt>
      <trkpt lat="56.886851655227" lon="14.831285145429">
        <ele>170.6</ele>
        <time>2020-03-28T11:29:00Z</time>
      </trkpt>
      <trkpt lat="56.886901276075" lon="14.831277434081">
        <ele>170.4</ele>
        <time>2020-03-28T11:29:03Z</time>
      </trkpt>
      <trkpt lat="56.886934887494" lon="14.831295455166">
        <ele>170.4</ele>
        <time>2020-03-28T11:29:05Z</time>
      </trkpt>
      <trkpt lat="56.887109650109" lon="14.831465188641">
        <ele>170.2</ele>
        <time>2020-03-28T11:29:13Z</time>
      </trkpt>
      <trkpt lat="56.887154074179" lon="14.8315038292">
        <ele>170</ele>
        <time>2020-03-28T11:29:15Z</time>
      </trkpt>
      <trkpt lat="56.887363286403" lon="14.831444401529">
        <ele>169.8</ele>
        <time>2020-03-28T11:29:21Z</time>
      </trkpt>
      <trkpt lat="56.88755548337" lon="14.831394613043">
        <ele>170</ele>
        <time>2020-03-28T11:29:27Z</time>
      </trkpt>
      <trkpt lat="56.887752625658" lon="14.831293359691">
        <ele>170</ele>
        <time>2020-03-28T11:29:34Z</time>
      </trkpt>
      <trkpt lat="56.887957563113" lon="14.831220772437">
        <ele>170</ele>
        <time>2020-03-28T11:29:40Z</time>
      </trkpt>
      <trkpt lat="56.88811539429" lon="14.831024300701">
        <ele>170.4</ele>
        <time>2020-03-28T11:29:46Z</time>
      </trkpt>
      <trkpt lat="56.888268866879" lon="14.830817100133">
        <ele>170.6</ele>
        <time>2020-03-28T11:29:51Z</time>
      </trkpt>
      <trkpt lat="56.888449077729" lon="14.830782901981">
        <ele>171</ele>
        <time>2020-03-28T11:29:56Z</time>
      </trkpt>
      <trkpt lat="56.888569525632" lon="14.830777453746">
        <ele>171.6</ele>
        <time>2020-03-28T11:30:00Z</time>
      </trkpt>
      <trkpt lat="56.888739342926" lon="14.830788266397">
        <ele>172.6</ele>
        <time>2020-03-28T11:30:05Z</time>
      </trkpt>
      <trkpt lat="56.888922319803" lon="14.830809053509">
        <ele>172.2</ele>
        <time>2020-03-28T11:30:14Z</time>
      </trkpt>
      <trkpt lat="56.889016783816" lon="14.830817938323">
        <ele>172.2</ele>
        <time>2020-03-28T11:30:18Z</time>
      </trkpt>
      <trkpt lat="56.889201604711" lon="14.830749542019">
        <ele>172</ele>
        <time>2020-03-28T11:30:26Z</time>
      </trkpt>
      <trkpt lat="56.889388856357" lon="14.830641415509">
        <ele>172.6</ele>
        <time>2020-03-28T11:30:36Z</time>
      </trkpt>
      <trkpt lat="56.889403776139" lon="14.830619454931">
        <ele>172.6</ele>
        <time>2020-03-28T11:30:37Z</time>
      </trkpt>
      <trkpt lat="56.889443338707" lon="14.830613336144">
        <ele>172.8</ele>
        <time>2020-03-28T11:30:39Z</time>
      </trkpt>
      <trkpt lat="56.88947912942" lon="14.830574863223">
        <ele>172.8</ele>
        <time>2020-03-28T11:30:41Z</time>
      </trkpt>
      <trkpt lat="56.88951349521" lon="14.830555752491">
        <ele>172.8</ele>
        <time>2020-03-28T11:30:43Z</time>
      </trkpt>
      <trkpt lat="56.889665710514" lon="14.830470508568">
        <ele>172.8</ele>
        <time>2020-03-28T11:30:52Z</time>
      </trkpt>
      <trkpt lat="56.889709128756" lon="14.830501605417">
        <ele>173.8</ele>
        <time>2020-03-28T11:30:54Z</time>
      </trkpt>
      <trkpt lat="56.88976159945" lon="14.830556758319">
        <ele>175</ele>
        <time>2020-03-28T11:30:57Z</time>
      </trkpt>
      <trkpt lat="56.889793283032" lon="14.830566146047">
        <ele>175.6</ele>
        <time>2020-03-28T11:30:59Z</time>
      </trkpt>
      <trkpt lat="56.889824044605" lon="14.830599254552">
        <ele>176</ele>
        <time>2020-03-28T11:31:01Z</time>
      </trkpt>
      <trkpt lat="56.889880035697" lon="14.830653988359">
        <ele>177.2</ele>
        <time>2020-03-28T11:31:07Z</time>
      </trkpt>
      <trkpt lat="56.889942899947" lon="14.830788098759">
        <ele>178.4</ele>
        <time>2020-03-28T11:31:15Z</time>
      </trkpt>
      <trkpt lat="56.889983887438" lon="14.830850543914">
        <ele>179.6</ele>
        <time>2020-03-28T11:31:19Z</time>
      </trkpt>
      <trkpt lat="56.890053541027" lon="14.830966381772">
        <ele>180.4</ele>
        <time>2020-03-28T11:31:26Z</time>
      </trkpt>
      <trkpt lat="56.890063431669" lon="14.83098163683">
        <ele>180.6</ele>
        <time>2020-03-28T11:31:27Z</time>
      </trkpt>
      <trkpt lat="56.890089918473" lon="14.831004687055">
        <ele>181</ele>
        <time>2020-03-28T11:31:29Z</time>
      </trkpt>
      <trkpt lat="56.890102658961" lon="14.831012398403">
        <ele>181.4</ele>
        <time>2020-03-28T11:31:31Z</time>
      </trkpt>
      <trkpt lat="56.890105173531" lon="14.83101264986">
        <ele>181.6</ele>
        <time>2020-03-28T11:31:32Z</time>
      </trkpt>
      <trkpt lat="56.890114393621" lon="14.83104785384">
        <ele>182.2</ele>
        <time>2020-03-28T11:31:39Z</time>
      </trkpt>
      <trkpt lat="56.890115147992" lon="14.831022121407">
        <ele>182.2</ele>
        <time>2020-03-28T11:31:43Z</time>
      </trkpt>
      <trkpt lat="56.890121853512" lon="14.830992617119">
        <ele>182.2</ele>
        <time>2020-03-28T11:31:46Z</time>
      </trkpt>
      <trkpt lat="56.890281780164" lon="14.830913994897">
        <ele>182.8</ele>
        <time>2020-03-28T11:32:00Z</time>
      </trkpt>
      <trkpt lat="56.890319582533" lon="14.830978200251">
        <ele>183.4</ele>
        <time>2020-03-28T11:32:03Z</time>
      </trkpt>
      <trkpt lat="56.890330646641" lon="14.831009800014">
        <ele>184</ele>
        <time>2020-03-28T11:32:05Z</time>
      </trkpt>
      <trkpt lat="56.890336933066" lon="14.830990186368">
        <ele>184.2</ele>
        <time>2020-03-28T11:32:08Z</time>
      </trkpt>
      <trkpt lat="56.890327880614" lon="14.830973003473">
        <ele>184</ele>
        <time>2020-03-28T11:32:10Z</time>
      </trkpt>
      <trkpt lat="56.890425781206" lon="14.831154387789">
        <ele>183.6</ele>
        <time>2020-03-28T11:32:34Z</time>
      </trkpt>
      <trkpt lat="56.890439443703" lon="14.831363935289">
        <ele>184.8</ele>
        <time>2020-03-28T11:32:42Z</time>
      </trkpt>
      <trkpt lat="56.890435168934" lon="14.831379525623">
        <ele>185.2</ele>
        <time>2020-03-28T11:32:43Z</time>
      </trkpt>
      <trkpt lat="56.89044640068" lon="14.831388829532">
        <ele>186.6</ele>
        <time>2020-03-28T11:32:46Z</time>
      </trkpt>
      <trkpt lat="56.890414381822" lon="14.831410622472">
        <ele>186.8</ele>
        <time>2020-03-28T11:33:01Z</time>
      </trkpt>
      <trkpt lat="56.890342297482" lon="14.831219850428">
        <ele>185</ele>
        <time>2020-03-28T11:33:06Z</time>
      </trkpt>
      <trkpt lat="56.890301477629" lon="14.831114573764">
        <ele>185</ele>
        <time>2020-03-28T11:33:09Z</time>
      </trkpt>
      <trkpt lat="56.890247246736" lon="14.830963448107">
        <ele>184</ele>
        <time>2020-03-28T11:33:14Z</time>
      </trkpt>
      <trkpt lat="56.890226711081" lon="14.830913324345">
        <ele>183.6</ele>
        <time>2020-03-28T11:33:16Z</time>
      </trkpt>
      <trkpt lat="56.890205588693" lon="14.830853477579">
        <ele>183.2</ele>
        <time>2020-03-28T11:33:18Z</time>
      </trkpt>
      <trkpt lat="56.890181700278" lon="14.830779130126">
        <ele>182.8</ele>
        <time>2020-03-28T11:33:21Z</time>
      </trkpt>
      <trkpt lat="56.890172899283" lon="14.830751386037">
        <ele>182.4</ele>
        <time>2020-03-28T11:33:22Z</time>
      </trkpt>
      <trkpt lat="56.890161499899" lon="14.83071928336">
        <ele>181.6</ele>
        <time>2020-03-28T11:33:23Z</time>
      </trkpt>
      <trkpt lat="56.890115231811" lon="14.830639152396">
        <ele>180.2</ele>
        <time>2020-03-28T11:33:26Z</time>
      </trkpt>
      <trkpt lat="56.890090840482" lon="14.830601433846">
        <ele>179.2</ele>
        <time>2020-03-28T11:33:28Z</time>
      </trkpt>
      <trkpt lat="56.890081871849" lon="14.83058852572">
        <ele>178.8</ele>
        <time>2020-03-28T11:33:29Z</time>
      </trkpt>
      <trkpt lat="56.890078016175" lon="14.830571175187">
        <ele>178</ele>
        <time>2020-03-28T11:33:31Z</time>
      </trkpt>
      <trkpt lat="56.890068460809" lon="14.830453660949">
        <ele>177.2</ele>
        <time>2020-03-28T11:33:42Z</time>
      </trkpt>
      <trkpt lat="56.890068125533" lon="14.830405129748">
        <ele>177</ele>
        <time>2020-03-28T11:33:46Z</time>
      </trkpt>
      <trkpt lat="56.890066952067" lon="14.830326507526">
        <ele>176</ele>
        <time>2020-03-28T11:33:53Z</time>
      </trkpt>
      <trkpt lat="56.890076172157" lon="14.830311252468">
        <ele>176</ele>
        <time>2020-03-28T11:34:02Z</time>
      </trkpt>
      <trkpt lat="56.890070807741" lon="14.830189882556">
        <ele>176</ele>
        <time>2020-03-28T11:34:39Z</time>
      </trkpt>
      <trkpt lat="56.890008194948" lon="14.82990456268">
        <ele>175.2</ele>
        <time>2020-03-28T11:34:49Z</time>
      </trkpt>
      <trkpt lat="56.889866037924" lon="14.829621086822">
        <ele>175.4</ele>
        <time>2020-03-28T11:34:56Z</time>
      </trkpt>
      <trkpt lat="56.889825134252" lon="14.829552439061">
        <ele>174.4</ele>
        <time>2020-03-28T11:34:58Z</time>
      </trkpt>
      <trkpt lat="56.88977920144" lon="14.829484461852">
        <ele>172.4</ele>
        <time>2020-03-28T11:35:00Z</time>
      </trkpt>
      <trkpt lat="56.889750451523" lon="14.829399050291">
        <ele>171.4</ele>
        <time>2020-03-28T11:35:03Z</time>
      </trkpt>
      <trkpt lat="56.889746009116" lon="14.82936895927">
        <ele>171.2</ele>
        <time>2020-03-28T11:35:04Z</time>
      </trkpt>
      <trkpt lat="56.889736872845" lon="14.829274914352">
        <ele>171.2</ele>
        <time>2020-03-28T11:35:16Z</time>
      </trkpt>
      <trkpt lat="56.889748439867" lon="14.829328474693">
        <ele>171</ele>
        <time>2020-03-28T11:35:18Z</time>
      </trkpt>
      <trkpt lat="56.889753469007" lon="14.829380526292">
        <ele>171</ele>
        <time>2020-03-28T11:35:20Z</time>
      </trkpt>
      <trkpt lat="56.889814908334" lon="14.829597868959">
        <ele>171.2</ele>
        <time>2020-03-28T11:35:29Z</time>
      </trkpt>
      <trkpt lat="56.889856398739" lon="14.829717311034">
        <ele>172.6</ele>
        <time>2020-03-28T11:35:32Z</time>
      </trkpt>
      <trkpt lat="56.889935356237" lon="14.829835412005">
        <ele>173.8</ele>
        <time>2020-03-28T11:35:35Z</time>
      </trkpt>
      <trkpt lat="56.889987994569" lon="14.829963068342">
        <ele>175.2</ele>
        <time>2020-03-28T11:35:39Z</time>
      </trkpt>
      <trkpt lat="56.889994448632" lon="14.830005313118">
        <ele>174.8</ele>
        <time>2020-03-28T11:35:40Z</time>
      </trkpt>
      <trkpt lat="56.890048595706" lon="14.830076475449">
        <ele>175.2</ele>
        <time>2020-03-28T11:35:44Z</time>
      </trkpt>
      <trkpt lat="56.890070975379" lon="14.830097094923">
        <ele>175</ele>
        <time>2020-03-28T11:35:46Z</time>
      </trkpt>
      <trkpt lat="56.890147837402" lon="14.830113942542">
        <ele>175</ele>
        <time>2020-03-28T11:35:50Z</time>
      </trkpt>
      <trkpt lat="56.89024020594" lon="14.830176639154">
        <ele>176.2</ele>
        <time>2020-03-28T11:35:55Z</time>
      </trkpt>
      <trkpt lat="56.89028127725" lon="14.830197258628">
        <ele>176.4</ele>
        <time>2020-03-28T11:35:58Z</time>
      </trkpt>
      <trkpt lat="56.890389487579" lon="14.830183847588">
        <ele>176.4</ele>
        <time>2020-03-28T11:36:05Z</time>
      </trkpt>
      <trkpt lat="56.890494848062" lon="14.830172867299">
        <ele>177.4</ele>
        <time>2020-03-28T11:36:09Z</time>
      </trkpt>
      <trkpt lat="56.89053105787" lon="14.830162809019">
        <ele>178.4</ele>
        <time>2020-03-28T11:36:11Z</time>
      </trkpt>
      <trkpt lat="56.890593251568" lon="14.830121570071">
        <ele>178.4</ele>
        <time>2020-03-28T11:36:16Z</time>
      </trkpt>
      <trkpt lat="56.890530638775" lon="14.830162976657">
        <ele>177.8</ele>
        <time>2020-03-28T11:36:22Z</time>
      </trkpt>
      <trkpt lat="56.890447741784" lon="14.830214860618">
        <ele>177.2</ele>
        <time>2020-03-28T11:36:25Z</time>
      </trkpt>
      <trkpt lat="56.890253281704" lon="14.830337823091">
        <ele>176.4</ele>
        <time>2020-03-28T11:36:35Z</time>
      </trkpt>
      <trkpt lat="56.890236601723" lon="14.830370428682">
        <ele>176.6</ele>
        <time>2020-03-28T11:36:36Z</time>
      </trkpt>
      <trkpt lat="56.890208019444" lon="14.830406219395">
        <ele>176.8</ele>
        <time>2020-03-28T11:36:38Z</time>
      </trkpt>
      <trkpt lat="56.890149849058" lon="14.830482662323">
        <ele>177.4</ele>
        <time>2020-03-28T11:36:41Z</time>
      </trkpt>
      <trkpt lat="56.890131157421" lon="14.830528343678">
        <ele>178.2</ele>
        <time>2020-03-28T11:36:44Z</time>
      </trkpt>
      <trkpt lat="56.890143227357" lon="14.830521721977">
        <ele>178.2</ele>
        <time>2020-03-28T11:36:46Z</time>
      </trkpt>
      <trkpt lat="56.890145574289" lon="14.830459025365">
        <ele>178.4</ele>
        <time>2020-03-28T11:36:49Z</time>
      </trkpt>
      <trkpt lat="56.890162086632" lon="14.830425497765">
        <ele>178.4</ele>
        <time>2020-03-28T11:36:51Z</time>
      </trkpt>
      <trkpt lat="56.890346320794" lon="14.830293650478">
        <ele>177.8</ele>
        <time>2020-03-28T11:37:00Z</time>
      </trkpt>
      <trkpt lat="56.890537009019" lon="14.830234977178">
        <ele>177.6</ele>
        <time>2020-03-28T11:37:07Z</time>
      </trkpt>
      <trkpt lat="56.890595766138" lon="14.830241431241">
        <ele>178</ele>
        <time>2020-03-28T11:37:10Z</time>
      </trkpt>
      <trkpt lat="56.890627198263" lon="14.83025995524">
        <ele>179</ele>
        <time>2020-03-28T11:37:13Z</time>
      </trkpt>
      <trkpt lat="56.890645806081" lon="14.830285520035">
        <ele>179.8</ele>
        <time>2020-03-28T11:37:15Z</time>
      </trkpt>
      <trkpt lat="56.890669107763" lon="14.830314940504">
        <ele>180.8</ele>
        <time>2020-03-28T11:37:17Z</time>
      </trkpt>
      <trkpt lat="56.890692409445" lon="14.830325501698">
        <ele>181.4</ele>
        <time>2020-03-28T11:37:19Z</time>
      </trkpt>
      <trkpt lat="56.890701294259" lon="14.830346624086">
        <ele>181.8</ele>
        <time>2020-03-28T11:37:20Z</time>
      </trkpt>
      <trkpt lat="56.890721494638" lon="14.830432790018">
        <ele>182.8</ele>
        <time>2020-03-28T11:37:24Z</time>
      </trkpt>
      <trkpt lat="56.890728703072" lon="14.830501689236">
        <ele>184</ele>
        <time>2020-03-28T11:37:27Z</time>
      </trkpt>
      <trkpt lat="56.890728116339" lon="14.830566397504">
        <ele>185.2</ele>
        <time>2020-03-28T11:37:29Z</time>
      </trkpt>
      <trkpt lat="56.890735324773" lon="14.830593638679">
        <ele>185.6</ele>
        <time>2020-03-28T11:37:30Z</time>
      </trkpt>
      <trkpt lat="56.890751753297" lon="14.830654658911">
        <ele>186</ele>
        <time>2020-03-28T11:37:32Z</time>
      </trkpt>
      <trkpt lat="56.890751334202" lon="14.830679217878">
        <ele>186.4</ele>
        <time>2020-03-28T11:37:33Z</time>
      </trkpt>
      <trkpt lat="56.890749154908" lon="14.830702016646">
        <ele>186.6</ele>
        <time>2020-03-28T11:37:34Z</time>
      </trkpt>
      <trkpt lat="56.890813444081" lon="14.830750380209">
        <ele>186.6</ele>
        <time>2020-03-28T11:37:39Z</time>
      </trkpt>
      <trkpt lat="56.890877481797" lon="14.83078214761">
        <ele>186.8</ele>
        <time>2020-03-28T11:37:43Z</time>
      </trkpt>
      <trkpt lat="56.891049143109" lon="14.830750212571">
        <ele>185.2</ele>
        <time>2020-03-28T11:37:51Z</time>
      </trkpt>
      <trkpt lat="56.891100524156" lon="14.830729928373">
        <ele>185</ele>
        <time>2020-03-28T11:37:54Z</time>
      </trkpt>
      <trkpt lat="56.891279812997" lon="14.83063797893">
        <ele>185.8</ele>
        <time>2020-03-28T11:38:03Z</time>
      </trkpt>
      <trkpt lat="56.891322644506" lon="14.830623226786">
        <ele>186.2</ele>
        <time>2020-03-28T11:38:08Z</time>
      </trkpt>
      <trkpt lat="56.891356842658" lon="14.830619119655">
        <ele>186.2</ele>
        <time>2020-03-28T11:38:10Z</time>
      </trkpt>
      <trkpt lat="56.891378803236" lon="14.830630099944">
        <ele>186.2</ele>
        <time>2020-03-28T11:38:11Z</time>
      </trkpt>
      <trkpt lat="56.891445774617" lon="14.830691874547">
        <ele>187</ele>
        <time>2020-03-28T11:38:14Z</time>
      </trkpt>
      <trkpt lat="56.891478966941" lon="14.830710985279">
        <ele>187.6</ele>
        <time>2020-03-28T11:38:15Z</time>
      </trkpt>
      <trkpt lat="56.89152179845" lon="14.830704363578">
        <ele>188.8</ele>
        <time>2020-03-28T11:38:17Z</time>
      </trkpt>
      <trkpt lat="56.89161651392" lon="14.830692377461">
        <ele>190</ele>
        <time>2020-03-28T11:38:21Z</time>
      </trkpt>
      <trkpt lat="56.891635959928" lon="14.830695562583">
        <ele>190.4</ele>
        <time>2020-03-28T11:38:22Z</time>
      </trkpt>
      <trkpt lat="56.89166596713" lon="14.830713583668">
        <ele>191.2</ele>
        <time>2020-03-28T11:38:24Z</time>
      </trkpt>
      <trkpt lat="56.891678456161" lon="14.830716182057">
        <ele>191.4</ele>
        <time>2020-03-28T11:38:25Z</time>
      </trkpt>
      <trkpt lat="56.891833353673" lon="14.830544353107">
        <ele>191.4</ele>
        <time>2020-03-28T11:38:34Z</time>
      </trkpt>
      <trkpt lat="56.891866629816" lon="14.830494983716">
        <ele>190.8</ele>
        <time>2020-03-28T11:38:37Z</time>
      </trkpt>
      <trkpt lat="56.891927230953" lon="14.830428515249">
        <ele>190.6</ele>
        <time>2020-03-28T11:38:40Z</time>
      </trkpt>
      <trkpt lat="56.891983305864" lon="14.830382833894">
        <ele>190.8</ele>
        <time>2020-03-28T11:38:43Z</time>
      </trkpt>
      <trkpt lat="56.892104256681" lon="14.830326423707">
        <ele>190.6</ele>
        <time>2020-03-28T11:38:50Z</time>
      </trkpt>
      <trkpt lat="56.892120601386" lon="14.830334051236">
        <ele>190.8</ele>
        <time>2020-03-28T11:39:01Z</time>
      </trkpt>
      <trkpt lat="56.892112303305" lon="14.830351653226">
        <ele>191</ele>
        <time>2020-03-28T11:39:03Z</time>
      </trkpt>
      <trkpt lat="56.892098556989" lon="14.830363723162">
        <ele>191</ele>
        <time>2020-03-28T11:39:05Z</time>
      </trkpt>
      <trkpt lat="56.892022030242" lon="14.830454750596">
        <ele>191.6</ele>
        <time>2020-03-28T11:39:10Z</time>
      </trkpt>
      <trkpt lat="56.891960004182" lon="14.830553657016">
        <ele>190.2</ele>
        <time>2020-03-28T11:39:15Z</time>
      </trkpt>
      <trkpt lat="56.891957405793" lon="14.830566481323">
        <ele>190.2</ele>
        <time>2020-03-28T11:39:16Z</time>
      </trkpt>
      <trkpt lat="56.891966793521" lon="14.830695059669">
        <ele>191.6</ele>
        <time>2020-03-28T11:39:24Z</time>
      </trkpt>
      <trkpt lat="56.892002500415" lon="14.830744931974">
        <ele>191.8</ele>
        <time>2020-03-28T11:39:26Z</time>
      </trkpt>
      <trkpt lat="56.891965284779" lon="14.830790110415">
        <ele>191.8</ele>
        <time>2020-03-28T11:39:30Z</time>
      </trkpt>
      <trkpt lat="56.891953298662" lon="14.830804862559">
        <ele>191.8</ele>
        <time>2020-03-28T11:39:31Z</time>
      </trkpt>
      <trkpt lat="56.891946844599" lon="14.830806287482">
        <ele>191.4</ele>
        <time>2020-03-28T11:39:33Z</time>
      </trkpt>
      <trkpt lat="56.891910299515" lon="14.830885747894">
        <ele>190.8</ele>
        <time>2020-03-28T11:39:38Z</time>
      </trkpt>
      <trkpt lat="56.891871407499" lon="14.831056068102">
        <ele>191.4</ele>
        <time>2020-03-28T11:39:44Z</time>
      </trkpt>
      <trkpt lat="56.891865959264" lon="14.83113921655">
        <ele>192</ele>
        <time>2020-03-28T11:39:46Z</time>
      </trkpt>
      <trkpt lat="56.89187048549" lon="14.831177018919">
        <ele>192.2</ele>
        <time>2020-03-28T11:39:47Z</time>
      </trkpt>
      <trkpt lat="56.891888841851" lon="14.831304004704">
        <ele>192.4</ele>
        <time>2020-03-28T11:39:51Z</time>
      </trkpt>
      <trkpt lat="56.891880711408" lon="14.831385309134">
        <ele>191.2</ele>
        <time>2020-03-28T11:39:53Z</time>
      </trkpt>
      <trkpt lat="56.891875598449" lon="14.831503158648">
        <ele>190.2</ele>
        <time>2020-03-28T11:39:56Z</time>
      </trkpt>
      <trkpt lat="56.891864199065" lon="14.831625115293">
        <ele>189</ele>
        <time>2020-03-28T11:39:59Z</time>
      </trkpt>
      <trkpt lat="56.891860846305" lon="14.83183994339">
        <ele>188.6</ele>
        <time>2020-03-28T11:40:04Z</time>
      </trkpt>
      <trkpt lat="56.891908790773" lon="14.831914458481">
        <ele>188</ele>
        <time>2020-03-28T11:40:08Z</time>
      </trkpt>
      <trkpt lat="56.891916250664" lon="14.831949159547">
        <ele>187.8</ele>
        <time>2020-03-28T11:40:09Z</time>
      </trkpt>
      <trkpt lat="56.89192748241" lon="14.832021579163">
        <ele>186.6</ele>
        <time>2020-03-28T11:40:12Z</time>
      </trkpt>
      <trkpt lat="56.891927733867" lon="14.832124341257">
        <ele>186.6</ele>
        <time>2020-03-28T11:40:17Z</time>
      </trkpt>
      <trkpt lat="56.891909126049" lon="14.832200784185">
        <ele>187</ele>
        <time>2020-03-28T11:40:20Z</time>
      </trkpt>
      <trkpt lat="56.891837628442" lon="14.832353502403">
        <ele>187.2</ele>
        <time>2020-03-28T11:40:25Z</time>
      </trkpt>
      <trkpt lat="56.891783565187" lon="14.832442937276">
        <ele>187</ele>
        <time>2020-03-28T11:40:27Z</time>
      </trkpt>
      <trkpt lat="56.891693795038" lon="14.832578304961">
        <ele>186.2</ele>
        <time>2020-03-28T11:40:33Z</time>
      </trkpt>
      <trkpt lat="56.891510399066" lon="14.832690119507">
        <ele>187.6</ele>
        <time>2020-03-28T11:40:43Z</time>
      </trkpt>
      <trkpt lat="56.891495311646" lon="14.832708140592">
        <ele>187.8</ele>
        <time>2020-03-28T11:40:44Z</time>
      </trkpt>
      <trkpt lat="56.891481984425" lon="14.832724569116">
        <ele>188</ele>
        <time>2020-03-28T11:40:46Z</time>
      </trkpt>
      <trkpt lat="56.891446780445" lon="14.832715181388">
        <ele>187.6</ele>
        <time>2020-03-28T11:40:48Z</time>
      </trkpt>
      <trkpt lat="56.891408223705" lon="14.832680983236">
        <ele>186.8</ele>
        <time>2020-03-28T11:40:51Z</time>
      </trkpt>
      <trkpt lat="56.891388610059" lon="14.832658519744">
        <ele>186.6</ele>
        <time>2020-03-28T11:40:52Z</time>
      </trkpt>
      <trkpt lat="56.891290206553" lon="14.832602863928">
        <ele>186.8</ele>
        <time>2020-03-28T11:40:56Z</time>
      </trkpt>
      <trkpt lat="56.89121250634" lon="14.832339588449">
        <ele>185.6</ele>
        <time>2020-03-28T11:41:02Z</time>
      </trkpt>
      <trkpt lat="56.891176967084" lon="14.832146553292">
        <ele>184.6</ele>
        <time>2020-03-28T11:41:07Z</time>
      </trkpt>
      <trkpt lat="56.891169842469" lon="14.832116629909">
        <ele>184.6</ele>
        <time>2020-03-28T11:41:08Z</time>
      </trkpt>
      <trkpt lat="56.891159281275" lon="14.832064326853">
        <ele>184.2</ele>
        <time>2020-03-28T11:41:11Z</time>
      </trkpt>
      <trkpt lat="56.89107252861" lon="14.832040773714">
        <ele>184.2</ele>
        <time>2020-03-28T11:41:16Z</time>
      </trkpt>
      <trkpt lat="56.890946548653" lon="14.831967851184">
        <ele>186.2</ele>
        <time>2020-03-28T11:41:23Z</time>
      </trkpt>
      <trkpt lat="56.890928862844" lon="14.831956619438">
        <ele>186.4</ele>
        <time>2020-03-28T11:41:24Z</time>
      </trkpt>
      <trkpt lat="56.890772372771" lon="14.831894509559">
        <ele>186.8</ele>
        <time>2020-03-28T11:41:31Z</time>
      </trkpt>
      <trkpt lat="56.890733816031" lon="14.83186089814">
        <ele>187</ele>
        <time>2020-03-28T11:41:34Z</time>
      </trkpt>
      <trkpt lat="56.890729960357" lon="14.831838183191">
        <ele>187.2</ele>
        <time>2020-03-28T11:41:35Z</time>
      </trkpt>
      <trkpt lat="56.890715208213" lon="14.831837009725">
        <ele>187.2</ele>
        <time>2020-03-28T11:41:36Z</time>
      </trkpt>
      <trkpt lat="56.890661480234" lon="14.831720585134">
        <ele>187</ele>
        <time>2020-03-28T11:41:41Z</time>
      </trkpt>
      <trkpt lat="56.890611188834" lon="14.831495112024">
        <ele>188.2</ele>
        <time>2020-03-28T11:41:47Z</time>
      </trkpt>
      <trkpt lat="56.890610769739" lon="14.831439791484">
        <ele>188.6</ele>
        <time>2020-03-28T11:41:49Z</time>
      </trkpt>
      <trkpt lat="56.890612613757" lon="14.831379274166">
        <ele>188</ele>
        <time>2020-03-28T11:41:53Z</time>
      </trkpt>
      <trkpt lat="56.890537931028" lon="14.831292772958">
        <ele>187.2</ele>
        <time>2020-03-28T11:42:09Z</time>
      </trkpt>
      <trkpt lat="56.890566010393" lon="14.831339711598">
        <ele>187.2</ele>
        <time>2020-03-28T11:42:18Z</time>
      </trkpt>
      <trkpt lat="56.890568608782" lon="14.831395199776">
        <ele>187.6</ele>
        <time>2020-03-28T11:42:20Z</time>
      </trkpt>
      <trkpt lat="56.890595682319" lon="14.831420094019">
        <ele>188.2</ele>
        <time>2020-03-28T11:42:23Z</time>
      </trkpt>
      <trkpt lat="56.890599537993" lon="14.831437276914">
        <ele>188.4</ele>
        <time>2020-03-28T11:42:25Z</time>
      </trkpt>
      <trkpt lat="56.890594257396" lon="14.831451442325">
        <ele>188.4</ele>
        <time>2020-03-28T11:42:27Z</time>
      </trkpt>
      <trkpt lat="56.890592078102" lon="14.83148119807">
        <ele>188.2</ele>
        <time>2020-03-28T11:42:29Z</time>
      </trkpt>
      <trkpt lat="56.890550922973" lon="14.831491172531">
        <ele>187.6</ele>
        <time>2020-03-28T11:42:33Z</time>
      </trkpt>
      <trkpt lat="56.890525861092" lon="14.831494944386">
        <ele>187.2</ele>
        <time>2020-03-28T11:42:34Z</time>
      </trkpt>
      <trkpt lat="56.890380938041" lon="14.831336023562">
        <ele>187.4</ele>
        <time>2020-03-28T11:42:45Z</time>
      </trkpt>
      <trkpt lat="56.890415136193" lon="14.831272153484">
        <ele>187.2</ele>
        <time>2020-03-28T11:43:06Z</time>
      </trkpt>
      <trkpt lat="56.890386386276" lon="14.831223957559">
        <ele>187.2</ele>
        <time>2020-03-28T11:43:11Z</time>
      </trkpt>
      <trkpt lat="56.890368365191" lon="14.83122219736">
        <ele>187.2</ele>
        <time>2020-03-28T11:43:13Z</time>
      </trkpt>
      <trkpt lat="56.890331484831" lon="14.831231082174">
        <ele>187</ele>
        <time>2020-03-28T11:43:17Z</time>
      </trkpt>
      <trkpt lat="56.890312541737" lon="14.831225382482">
        <ele>186.8</ele>
        <time>2020-03-28T11:43:19Z</time>
      </trkpt>
      <trkpt lat="56.890297957231" lon="14.831222448817">
        <ele>186.8</ele>
        <time>2020-03-28T11:43:21Z</time>
      </trkpt>
      <trkpt lat="56.890281444888" lon="14.831163691698">
        <ele>186.4</ele>
        <time>2020-03-28T11:43:24Z</time>
      </trkpt>
      <trkpt lat="56.890276667205" lon="14.831146927898">
        <ele>186</ele>
        <time>2020-03-28T11:43:25Z</time>
      </trkpt>
      <trkpt lat="56.890261663604" lon="14.831086662037">
        <ele>185</ele>
        <time>2020-03-28T11:43:28Z</time>
      </trkpt>
      <trkpt lat="56.890257891749" lon="14.831075011196">
        <ele>185</ele>
        <time>2020-03-28T11:43:29Z</time>
      </trkpt>
      <trkpt lat="56.890257221197" lon="14.830954228017">
        <ele>185.2</ele>
        <time>2020-03-28T11:43:36Z</time>
      </trkpt>
      <trkpt lat="56.890255628636" lon="14.830849454267">
        <ele>185</ele>
        <time>2020-03-28T11:43:42Z</time>
      </trkpt>
      <trkpt lat="56.890263172346" lon="14.83070671051">
        <ele>184</ele>
        <time>2020-03-28T11:43:48Z</time>
      </trkpt>
      <trkpt lat="56.890247917288" lon="14.830571259006">
        <ele>183.8</ele>
        <time>2020-03-28T11:43:53Z</time>
      </trkpt>
      <trkpt lat="56.890253700799" lon="14.830528595135">
        <ele>182.8</ele>
        <time>2020-03-28T11:43:55Z</time>
      </trkpt>
      <trkpt lat="56.890254203713" lon="14.830498671752">
        <ele>182.2</ele>
        <time>2020-03-28T11:43:56Z</time>
      </trkpt>
      <trkpt lat="56.890252946428" lon="14.830473777509">
        <ele>181.4</ele>
        <time>2020-03-28T11:43:57Z</time>
      </trkpt>
      <trkpt lat="56.890256383007" lon="14.83045525351">
        <ele>180.8</ele>
        <time>2020-03-28T11:43:58Z</time>
      </trkpt>
      <trkpt lat="56.890263172346" lon="14.830442932117">
        <ele>180.2</ele>
        <time>2020-03-28T11:43:59Z</time>
      </trkpt>
      <trkpt lat="56.890280774336" lon="14.83036556718">
        <ele>178.8</ele>
        <time>2020-03-28T11:44:02Z</time>
      </trkpt>
      <trkpt lat="56.890296280851" lon="14.830316868341">
        <ele>178</ele>
        <time>2020-03-28T11:44:04Z</time>
      </trkpt>
      <trkpt lat="56.890307680235" lon="14.830236569739">
        <ele>177.6</ele>
        <time>2020-03-28T11:44:06Z</time>
      </trkpt>
      <trkpt lat="56.890280187603" lon="14.830132717998">
        <ele>177.4</ele>
        <time>2020-03-28T11:44:11Z</time>
      </trkpt>
      <trkpt lat="56.890259149034" lon="14.830059544011">
        <ele>177.8</ele>
        <time>2020-03-28T11:44:13Z</time>
      </trkpt>
      <trkpt lat="56.890254036075" lon="14.82995485408">
        <ele>178.8</ele>
        <time>2020-03-28T11:44:16Z</time>
      </trkpt>
      <trkpt lat="56.890258059387" lon="14.82991629734">
        <ele>179</ele>
        <time>2020-03-28T11:44:17Z</time>
      </trkpt>
      <trkpt lat="56.89026535164" lon="14.829587559222">
        <ele>177.6</ele>
        <time>2020-03-28T11:44:25Z</time>
      </trkpt>
      <trkpt lat="56.890255125722" lon="14.829562748798">
        <ele>177.2</ele>
        <time>2020-03-28T11:44:27Z</time>
      </trkpt>
      <trkpt lat="56.890246576184" lon="14.829523437687">
        <ele>176.6</ele>
        <time>2020-03-28T11:44:29Z</time>
      </trkpt>
      <trkpt lat="56.890255963912" lon="14.829487563155">
        <ele>175.8</ele>
        <time>2020-03-28T11:44:31Z</time>
      </trkpt>
      <trkpt lat="56.890268452943" lon="14.829472559554">
        <ele>175.6</ele>
        <time>2020-03-28T11:44:32Z</time>
      </trkpt>
      <trkpt lat="56.890281612526" lon="14.829451772442">
        <ele>175.4</ele>
        <time>2020-03-28T11:44:33Z</time>
      </trkpt>
      <trkpt lat="56.890287815132" lon="14.829411958417">
        <ele>175.2</ele>
        <time>2020-03-28T11:44:35Z</time>
      </trkpt>
      <trkpt lat="56.890284210915" lon="14.829360158275">
        <ele>174.8</ele>
        <time>2020-03-28T11:44:37Z</time>
      </trkpt>
      <trkpt lat="56.890299465973" lon="14.829273573248">
        <ele>174.4</ele>
        <time>2020-03-28T11:44:39Z</time>
      </trkpt>
      <trkpt lat="56.890277756852" lon="14.828978111273">
        <ele>173.2</ele>
        <time>2020-03-28T11:44:45Z</time>
      </trkpt>
      <trkpt lat="56.890196536241" lon="14.828569745105">
        <ele>173</ele>
        <time>2020-03-28T11:44:54Z</time>
      </trkpt>
      <trkpt lat="56.890144736099" lon="14.828249891801">
        <ele>172.6</ele>
        <time>2020-03-28T11:45:01Z</time>
      </trkpt>
      <trkpt lat="56.890105592626" lon="14.827887290807">
        <ele>173</ele>
        <time>2020-03-28T11:45:07Z</time>
      </trkpt>
      <trkpt lat="56.890119674218" lon="14.827533155532">
        <ele>172</ele>
        <time>2020-03-28T11:45:13Z</time>
      </trkpt>
      <trkpt lat="56.890177006414" lon="14.827217744635">
        <ele>171.8</ele>
        <time>2020-03-28T11:45:19Z</time>
      </trkpt>
      <trkpt lat="56.890214138231" lon="14.826857909668">
        <ele>172.8</ele>
        <time>2020-03-28T11:45:24Z</time>
      </trkpt>
      <trkpt lat="56.890214054412" lon="14.826792447029">
        <ele>173.2</ele>
        <time>2020-03-28T11:45:25Z</time>
      </trkpt>
      <trkpt lat="56.890220843751" lon="14.826433701709">
        <ele>173.4</ele>
        <time>2020-03-28T11:45:30Z</time>
      </trkpt>
      <trkpt lat="56.890265938373" lon="14.82609918008">
        <ele>172.4</ele>
        <time>2020-03-28T11:45:35Z</time>
      </trkpt>
      <trkpt lat="56.890347745717" lon="14.825778404767">
        <ele>172.8</ele>
        <time>2020-03-28T11:45:41Z</time>
      </trkpt>
      <trkpt lat="56.890460733729" lon="14.825455701617">
        <ele>173.2</ele>
        <time>2020-03-28T11:45:48Z</time>
      </trkpt>
      <trkpt lat="56.890604231857" lon="14.825225702281">
        <ele>173.8</ele>
        <time>2020-03-28T11:45:54Z</time>
      </trkpt>
      <trkpt lat="56.890647147185" lon="14.825142218557">
        <ele>174.2</ele>
        <time>2020-03-28T11:45:56Z</time>
      </trkpt>
      <trkpt lat="56.890757536808" lon="14.824856814862">
        <ele>173.4</ele>
        <time>2020-03-28T11:46:02Z</time>
      </trkpt>
      <trkpt lat="56.890891311932" lon="14.824648105552">
        <ele>175.4</ele>
        <time>2020-03-28T11:46:10Z</time>
      </trkpt>
      <trkpt lat="56.890925342446" lon="14.824607788613">
        <ele>176.6</ele>
        <time>2020-03-28T11:46:12Z</time>
      </trkpt>
      <trkpt lat="56.890971275258" lon="14.824542158336">
        <ele>177.6</ele>
        <time>2020-03-28T11:46:14Z</time>
      </trkpt>
      <trkpt lat="56.891105469477" lon="14.824305621118">
        <ele>177.4</ele>
        <time>2020-03-28T11:46:21Z</time>
      </trkpt>
      <trkpt lat="56.89113287829" lon="14.824257173736">
        <ele>177.6</ele>
        <time>2020-03-28T11:46:23Z</time>
      </trkpt>
    </trkseg>
  </trk>
</gpx>